Home > Products > Valid Products > MTR

000
SAUS41 KLWX 060004 COR
MTRRSP
METAR KRSP 052354Z AUTO 10SM CLR M02/M10 RMK AO2 SLPNO T10171100
10017 21022 $





000
SAUS41 KLWX 060001 COR
MTRRYT
METAR KRYT 052353Z AUTO VRB03KT 10SM CLR 01/M09 A3032 RMK AO2 SLP281
T00061094 10028 20000 51020 $





000
SAUS41 KLWX 060000
MTRRYT
METAR KRYT 052353Z AUTO VRB03KT 10SM CLR 01/M09 A3032 RMK AO2 SLP281
T00061094 10028 20000 51020 $





000
SAUS41 KLWX 052358
MTRDMH
METAR KDMH 052354Z AUTO 03/M08 A3035 RMK AO1 SLP275 T00331078 10056
20033 51029





000
SAUS41 KLWX 052355
MTRNAK
METAR KNAK 052354Z AUTO 30007KT 10SM CLR 03/M06 A3036 RMK AO2 SLP281
T00331061 10061 20033 51026





000
SAUS41 KLWX 052304 COR
MTRRSP
METAR KRSP 052254Z AUTO 10SM CLR M02/M09 RMK AO2 SLPNO T10171094 $





000
SAUS41 KLWX 052304 COR
MTRRSP
METAR KRSP 052254Z AUTO 10SM CLR M02/M09 RMK AO2 SLPNO T10171094 $





000
SAUS41 KLWX 052301 COR
MTRRYT
METAR KRYT 052253Z AUTO VRB06KT 10SM CLR 01/M10 A3030 RMK AO2 SLP276
T00111100 $





000
SAUS41 KLWX 052301 COR
MTRRYT
METAR KRYT 052253Z AUTO VRB06KT 10SM CLR 01/M10 A3030 RMK AO2 SLP276
T00111100 $





000
SAUS41 KLWX 052300 COR
MTRRYT
METAR KRYT 052253Z AUTO VRB06KT 10SM CLR 01/M10 A3030 RMK AO2 SLP276
T00111100 $





000
SAUS41 KLWX 052300 COR
MTRRYT
METAR KRYT 052253Z AUTO VRB06KT 10SM CLR 01/M10 A3030 RMK AO2 SLP276
T00111100 $





000
SAUS41 KLWX 052258
MTRDMH
METAR KDMH 052254Z AUTO 04/M08 A3033 RMK AO1 SLP269 T00441078





000
SAUS41 KLWX 052258
MTRDMH
METAR KDMH 052254Z AUTO 04/M08 A3033 RMK AO1 SLP269 T00441078





000
SAUS41 KLWX 052255
MTRNAK
METAR KNAK 052254Z AUTO 30011KT 10SM CLR 04/M06 A3034 RMK AO2 SLP276
T00441061





000
SAUS41 KLWX 052255
MTRNAK
METAR KNAK 052254Z AUTO 30011KT 10SM CLR 04/M06 A3034 RMK AO2 SLP276
T00441061





000
SAUS41 KLWX 052204 COR
MTRRSP
METAR KRSP 052154Z AUTO 10SM CLR M01/M09 RMK AO2 SLPNO T10061089 $





000
SAUS41 KLWX 052201 COR
MTRRYT
METAR KRYT 052153Z AUTO 29007KT 10SM CLR 02/M09 A3029 RMK AO2 SLP269
T00171094 $





000
SAUS41 KLWX 052201 COR
MTRRYT
METAR KRYT 052153Z AUTO 29007KT 10SM CLR 02/M09 A3029 RMK AO2 SLP269
T00171094 $





000
SAUS41 KLWX 052200
MTRRYT
METAR KRYT 052153Z AUTO 29007KT 10SM CLR 02/M09 A3029 RMK AO2 SLP269
T00171094 $





000
SAUS41 KLWX 052158
MTRDMH
METAR KDMH 052154Z AUTO 05/M08 A3029 RMK AO1 SLP258 T00501078





000
SAUS41 KLWX 052158
MTRDMH
METAR KDMH 052154Z AUTO 05/M08 A3029 RMK AO1 SLP258 T00501078





000
SAUS41 KLWX 052156
MTRNAK
METAR KNAK 052154Z AUTO 31011G19KT 10SM CLR 05/M07 A3030 RMK AO2
SLP263 T00501067





000
SAUS41 KLWX 052156
MTRNAK
METAR KNAK 052154Z AUTO 31011G19KT 10SM CLR 05/M07 A3030 RMK AO2
SLP263 T00501067





000
SAUS41 KLWX 052104 COR
MTRRSP
METAR KRSP 052054Z AUTO 10SM BKN032 01/M08 RMK AO2 SLPNO T00061078 $





000
SAUS41 KLWX 052104 COR
MTRRSP
METAR KRSP 052054Z AUTO 10SM BKN032 01/M08 RMK AO2 SLPNO T00061078 $





000
SAUS41 KLWX 052101 COR
MTRRYT
METAR KRYT 052053Z AUTO VRB06G15KT 10SM CLR 02/M09 A3025 RMK AO2
SLP258 T00221089 53006 $





000
SAUS41 KLWX 052100
MTRRYT
METAR KRYT 052053Z AUTO VRB06G15KT 10SM CLR 02/M09 A3025 RMK AO2
SLP258 T00221089 53006 $





000
SAUS41 KLWX 052058
MTRDMH
METAR KDMH 052054Z AUTO 05/M08 A3026 RMK AO1 SLP246 T00501083 53003





000
SAUS41 KLWX 052055
MTRNAK
METAR KNAK 052054Z AUTO 32013KT 10SM CLR 06/M06 A3028 RMK AO2 SLP255
T00561056 53014





000
SAUS41 KLWX 052004 COR
MTRRSP
METAR KRSP 051954Z AUTO 10SM FEW035 01/M08 RMK AO2 SLPNO T00111078 $





000
SAUS41 KLWX 052001 COR
MTRRYT
METAR KRYT 051953Z AUTO 29007G16KT 260V320 10SM BKN046 02/M08 A3024
RMK AO2 SLP253 T00221078 $





000
SAUS41 KLWX 052000
MTRRYT
METAR KRYT 051953Z AUTO 29007G16KT 260V320 10SM BKN046 02/M08 A3024
RMK AO2 SLP253 T00221078 $





000
SAUS41 KLWX 051958
MTRDMH
METAR KDMH 051954Z AUTO 06/M07 A3024 RMK AO1 SLP241 T00561072





000
SAUS41 KLWX 051955
MTRNAK
METAR KNAK 051954Z AUTO 30012KT 10SM FEW060 06/M06 A3026 RMK AO2
SLP248 T00561056





000
SAUS41 KLWX 051904 COR
MTRRSP
METAR KRSP 051854Z AUTO 10SM SCT033 OVC043 01/M08 RMK AO2 SLPNO
T00061078 $





000
SAUS41 KLWX 051901 COR
MTRRYT
METAR KRYT 051853Z AUTO 31007G16KT 270V330 10SM OVC048 02/M08 A3023
RMK AO2 SLP250 T00221078 $





000
SAUS41 KLWX 051900
MTRRYT
METAR KRYT 051853Z AUTO 31007G16KT 270V330 10SM OVC048 02/M08 A3023
RMK AO2 SLP250 T00221078 $





000
SAUS41 KLWX 051900
MTRRYT
METAR KRYT 051853Z AUTO 31007G16KT 270V330 10SM OVC048 02/M08 A3023
RMK AO2 SLP250 T00221078 $





000
SAUS41 KLWX 051858
MTRDMH
METAR KDMH 051854Z AUTO 05/M07 A3025 RMK AO1 SLP242 T00501067





000
SAUS41 KLWX 051856
MTRNAK
METAR KNAK 051854Z AUTO 31013G24KT 10SM SCT060 06/M06 A3025 RMK AO2
PK WND 33026/1813 SLP244 T00561056





000
SAUS41 KLWX 051856
MTRNAK
METAR KNAK 051854Z AUTO 31013G24KT 10SM SCT060 06/M06 A3025 RMK AO2
PK WND 33026/1813 SLP244 T00561056





000
SAUS41 KLWX 051804 COR
MTRRSP
METAR KRSP 051754Z AUTO 10SM BKN034 OVC043 00/M08 RMK AO2 SLPNO
60001 T00001078 10006 21022 $





000
SAUS41 KLWX 051804 COR
MTRRSP
METAR KRSP 051754Z AUTO 10SM BKN034 OVC043 00/M08 RMK AO2 SLPNO
60001 T00001078 10006 21022 $





000
SAUS41 KLWX 051801 COR
MTRRYT
METAR KRYT 051753Z AUTO 27010G18KT 240V300 10SM BKN047 02/M08 A3024
RMK AO2 SLP252 60000 T00221078 10022 20000 51011 $





000
SAUS41 KLWX 051801 COR
MTRRYT
METAR KRYT 051753Z AUTO 27010G18KT 240V300 10SM BKN047 02/M08 A3024
RMK AO2 SLP252 60000 T00221078 10022 20000 51011 $





000
SAUS41 KLWX 051800
MTRRYT
METAR KRYT 051753Z AUTO 27010G18KT 240V300 10SM BKN047 02/M08 A3024
RMK AO2 SLP252 60000 T00221078 10022 20000 51011 $





000
SAUS41 KLWX 051800 COR
MTRRYT
METAR KRYT 051753Z AUTO 27010G18KT 240V300 10SM BKN047 02/M08 A3024
RMK AO2 SLP252 60000 T00221078 10022 20000 51011 $





000
SAUS41 KLWX 051758
MTRDMH
METAR KDMH 051754Z AUTO 06/M06 A3025 RMK AO1 SLP244 T00561056 10056
20033 53009





000
SAUS41 KLWX 051755
MTRNAK
METAR KNAK 051754Z AUTO 31016G24KT 10SM SCT048 BKN060 OVC075 05/M04
A3024 RMK AO2 UPE1656 SLP241 P0000 60000 T00501039 10056 20022 50004





000
SAUS41 KLWX 051755
MTRNAK
METAR KNAK 051754Z AUTO 31016G24KT 10SM SCT048 BKN060 OVC075 05/M04
A3024 RMK AO2 UPE1656 SLP241 P0000 60000 T00501039 10056 20022 50004





000
SAUS41 KLWX 051704 COR
MTRRSP
METAR KRSP 051654Z AUTO 10SM SCT028 BKN037 00/M07 RMK AO2 SLPNO
T00001072 $





000
SAUS41 KLWX 051704 COR
MTRRSP
METAR KRSP 051654Z AUTO 10SM SCT028 BKN037 00/M07 RMK AO2 SLPNO
T00001072 $





000
SAUS41 KLWX 051701 COR
MTRRYT
METAR KRYT 051653Z AUTO 28012G19KT 250V330 10SM BKN039 02/M07 A3023
RMK AO2 SLP250 T00221072 $





000
SAUS41 KLWX 051701 COR
MTRRYT
METAR KRYT 051653Z AUTO 28012G19KT 250V330 10SM BKN039 02/M07 A3023
RMK AO2 SLP250 T00221072 $





000
SAUS41 KLWX 051658
MTRDMH
METAR KDMH 051654Z AUTO 05/M03 A3024 RMK AO1 SLP240 T00501028





000
SAUS41 KLWX 051658
MTRDMH
METAR KDMH 051654Z AUTO 05/M03 A3024 RMK AO1 SLP240 T00501028





000
SAUS41 KLWX 051655
MTRNAK
METAR KNAK 051654Z AUTO 29007KT 8SM UP SCT020 OVC075 03/00 A3024 RMK
AO2 RAB40E41UPB54SNB39E54 SLP242 P0000 T00330000





000
SAUS41 KLWX 051655
MTRNAK
METAR KNAK 051654Z AUTO 29007KT 8SM UP SCT020 OVC075 03/00 A3024 RMK
AO2 RAB40E41UPB54SNB39E54 SLP242 P0000 T00330000





000
SAUS41 KLWX 051638 COR
MTRRSP
SPECI KRSP 051627Z AUTO 10SM SCT026 BKN032 BKN050 00/M07 RMK AO2 $





000
SAUS41 KLWX 051638 COR
MTRRSP
SPECI KRSP 051627Z AUTO 10SM SCT026 BKN032 BKN050 00/M07 RMK AO2 $





000
SAUS41 KLWX 051622 COR
MTRRSP
SPECI KRSP 051610Z AUTO 10SM BKN024 BKN030 OVC050 M01/M06 RMK AO2 $





000
SAUS41 KLWX 051622 COR
MTRRSP
SPECI KRSP 051610Z AUTO 10SM BKN024 BKN030 OVC050 M01/M06 RMK AO2 $





000
SAUS41 KLWX 051601 COR
MTRRYT
METAR KRYT 051553Z AUTO 29011G18KT 10SM BKN035 BKN045 02/M06 A3023
RMK AO2 SLP249 T00171061 $





000
SAUS41 KLWX 051600 COR
MTRRSP
METAR KRSP 051554Z AUTO 10SM SCT024 BKN042 OVC055 00/M06 RMK AO2
SLPNO T00001061 $





000
SAUS41 KLWX 051600
MTRRYT
METAR KRYT 051553Z AUTO 29011G18KT 10SM BKN035 BKN045 02/M06 A3023
RMK AO2 SLP249 T00171061 $





000
SAUS41 KLWX 051558
MTRDMH
METAR KDMH 051554Z AUTO 04/M01 A3022 RMK AO1 SLP234 T00391011





000
SAUS41 KLWX 051555
MTRNAK
METAR KNAK 051554Z AUTO 30014G19KT 10SM SCT020 OVC080 03/M01 A3023
RMK AO2 SLP237 T00331006





000
SAUS41 KLWX 051555
MTRNAK
METAR KNAK 051554Z AUTO 30014G19KT 10SM SCT020 OVC080 03/M01 A3023
RMK AO2 SLP237 T00331006





000
SAUS41 KLWX 051544
MTRNAK
SPECI KNAK 051542Z AUTO 31010KT 10SM BKN020 OVC075 04/00 A3022 RMK
AO2 T00390000





000
SAUS41 KLWX 051504 COR
MTRRSP
METAR KRSP 051454Z AUTO 10SM SCT014 BKN021 OVC055 M01/M05 RMK AO2
SNE39 SLPNO P0000 60001 T10111050 $





000
SAUS41 KLWX 051501 COR
MTRRYT
METAR KRYT 051453Z AUTO 33006KT 10SM FEW023 SCT033 OVC065 01/M04
A3020 RMK AO2 SNE40 SLP241 P0000 60000 T00111039 51029 $





000
SAUS41 KLWX 051458
MTRDMH
METAR KDMH 051454Z AUTO 04/M01 A3022 RMK AO1 SLP234 T00391006 53028





000
SAUS41 KLWX 051455
MTRNAK
METAR KNAK 051454Z AUTO 29009KT 10SM SCT070 OVC080 03/01 A3020 RMK
AO2 SLP228 T00330006 51031





000
SAUS41 KLWX 051442 COR
MTRRSP
SPECI KRSP 051437Z AUTO 3SM -SN FEW009 OVC014 M01/M04 RMK AO2 P0000
$





000
SAUS41 KLWX 051442 COR
MTRRSP
SPECI KRSP 051437Z AUTO 3SM -SN FEW009 OVC014 M01/M04 RMK AO2 P0000
$





000
SAUS41 KLWX 051433 COR
MTRRYT
SPECI KRYT 051425Z AUTO VRB04KT 4SM -SN FEW017 BKN046 OVC065 01/M03
A3020 RMK AO2 P0000 $





000
SAUS41 KLWX 051433 COR
MTRRYT
SPECI KRYT 051425Z AUTO VRB04KT 4SM -SN FEW017 BKN046 OVC065 01/M03
A3020 RMK AO2 P0000 $





000
SAUS41 KLWX 051432 COR
MTRRYT
SPECI KRYT 051425Z AUTO VRB04KT 4SM -SN FEW017 BKN046 OVC065 01/M03
A3020 RMK AO2 P0000 $





000
SAUS41 KLWX 051432 COR
MTRRYT
SPECI KRYT 051425Z AUTO VRB04KT 4SM -SN FEW017 BKN046 OVC065 01/M03
A3020 RMK AO2 P0000 $





000
SAUS41 KLWX 051432
MTRRYT
SPECI KRYT 051425Z AUTO VRB04KT 4SM -SN FEW017 BKN046 OVC065 01/M03
A3020 RMK AO2 P0000 $





000
SAUS41 KLWX 051414 COR
MTRRSP
SPECI KRSP 051407Z AUTO 3/4SM -SN BR OVC010 M02/M04 RMK AO2 CIG
009V014 P0000 $





000
SAUS41 KLWX 051400 COR
MTRRSP
METAR KRSP 051354Z AUTO 2 1/2SM -SN OVC010 M02/M04 RMK AO2
SNB06E19B38 SLPNO P0001 T10171044 $





000
SAUS41 KLWX 051358
MTRDMH
METAR KDMH 051354Z AUTO 04/M01 A3020 RMK AO1 SLP226 T00391011





000
SAUS41 KLWX 051358
MTRDMH
METAR KDMH 051354Z AUTO 04/M01 A3020 RMK AO1 SLP226 T00391011





000
SAUS41 KLWX 051355
MTRNAK
METAR KNAK 051354Z AUTO 30010KT 10SM FEW029 BKN041 OVC080 03/01
A3019 RMK AO2 SLP226 T00280006





000
SAUS41 KLWX 051304 COR
MTRRSP
METAR KRSP 051254Z AUTO 10SM OVC012 M02/M04 RMK AO2 SNB07E26 SLPNO
P0000 T10171044 $





000
SAUS41 KLWX 051304 COR
MTRRSP
METAR KRSP 051254Z AUTO 10SM OVC012 M02/M04 RMK AO2 SNB07E26 SLPNO
P0000 T10171044 $





000
SAUS41 KLWX 051258
MTRDMH
METAR KDMH 051254Z AUTO 04/M02 A3016 RMK AO1 SLP212 T00391017





000
SAUS41 KLWX 051258
MTRDMH
METAR KDMH 051254Z AUTO 04/M02 A3016 RMK AO1 SLP212 T00391017





000
SAUS41 KLWX 051255
MTRNAK
METAR KNAK 051254Z AUTO 28004KT 6SM BR FEW060 SCT090 OVC110 02/01
A3016 RMK AO2 SLP215 T00220011





000
SAUS41 KLWX 051255
MTRNAK
METAR KNAK 051254Z AUTO 28004KT 6SM BR FEW060 SCT090 OVC110 02/01
A3016 RMK AO2 SLP215 T00220011





000
SAUS41 KLWX 051238 COR
MTRRSP
SPECI KRSP 051228Z AUTO 5SM HZ OVC014 M02/M05 RMK AO2 SNB07E26 P0000
$





000
SAUS41 KLWX 051238 COR
MTRRSP
SPECI KRSP 051228Z AUTO 5SM HZ OVC014 M02/M05 RMK AO2 SNB07E26 P0000
$





000
SAUS41 KLWX 051204 COR
MTRRSP
METAR KRSP 051154Z AUTO 7SM OVC018 M02/M05 RMK AO2 SNE1058 SLPNO
P0000 60000 T10171050 10006 21017 $





000
SAUS41 KLWX 051204 COR
MTRRSP
METAR KRSP 051154Z AUTO 7SM OVC018 M02/M05 RMK AO2 SNE1058 SLPNO
P0000 60000 T10171050 10006 21017 $





000
SAUS41 KLWX 051158
MTRDMH
METAR KDMH 051154Z AUTO 04/M01 A3014 RMK AO1 PRESRR SLP207 60009
70009 T00391011 10056 20022 51014





000
SAUS41 KLWX 051158
MTRDMH
METAR KDMH 051154Z AUTO 04/M01 A3014 RMK AO1 PRESRR SLP207 60009
70009 T00391011 10056 20022 51014





000
SAUS41 KLWX 051155
MTRNAK
METAR KNAK 051154Z AUTO 34006KT 9SM BKN060 BKN070 OVC100 02/01 A3011
RMK AO2 UPE22 PRESFR SLP197 P0000 60014 70016 T00220011 10044 20011
53004





000
SAUS41 KLWX 051155
MTRNAK
METAR KNAK 051154Z AUTO 34006KT 9SM BKN060 BKN070 OVC100 02/01 A3011
RMK AO2 UPE22 PRESFR SLP197 P0000 60014 70016 T00220011 10044 20011
53004





000
SAUS41 KLWX 051104 COR
MTRRSP
METAR KRSP 051054Z AUTO 3SM -SN BKN020 OVC027 M01/M04 RMK AO2
SNE03B30 SLPNO P0000 T10111044 $





000
SAUS41 KLWX 051104 COR
MTRRSP
METAR KRSP 051054Z AUTO 3SM -SN BKN020 OVC027 M01/M04 RMK AO2
SNE03B30 SLPNO P0000 T10111044 $





000
SAUS41 KLWX 051058
MTRDMH
METAR KDMH 051054Z AUTO 03/01 A3013 RMK AO1 SLP202 T00330006





000
SAUS41 KLWX 051058
MTRDMH
METAR KDMH 051054Z AUTO 03/01 A3013 RMK AO1 SLP202 T00330006





000
SAUS41 KLWX 051056
MTRNAK
METAR KNAK 051054Z AUTO 34008KT 9SM UP OVC040 02/01 A3010 RMK AO2
UPB14E24B54SNE14 SLP193 P0001 T00220011





000
SAUS41 KLWX 051056
MTRNAK
METAR KNAK 051054Z AUTO 34008KT 9SM UP OVC040 02/01 A3010 RMK AO2
UPB14E24B54SNE14 SLP193 P0001 T00220011





000
SAUS41 KLWX 051030
MTRNAK
SPECI KNAK 051029Z AUTO 34008KT 6SM BR FEW010 BKN040 OVC070 02/01
A3010 RMK AO2 UPB14E24SNE14 P0001 T00170011





000
SAUS41 KLWX 051016
MTRNAK
SPECI KNAK 051015Z AUTO 35007KT 4SM UP BR SCT009 OVC023 02/01 A3012
RMK AO2 UPB14SNE14 P0001 T00170011





000
SAUS41 KLWX 051016
MTRNAK
SPECI KNAK 051015Z AUTO 35007KT 4SM UP BR SCT009 OVC023 02/01 A3012
RMK AO2 UPB14SNE14 P0001 T00170011





000
SAUS41 KLWX 051004 COR
MTRRSP
METAR KRSP 050954Z AUTO 6SM -SN BKN022 OVC027 M01/M04 RMK AO2 SNB20
SLPNO P0000 T10061044 $





000
SAUS41 KLWX 050958
MTRDMH
METAR KDMH 050954Z AUTO 02/01 A3012 RMK AO1 SLP197 P0002 T00220006





000
SAUS41 KLWX 050958
MTRDMH
METAR KDMH 050954Z AUTO 02/01 A3012 RMK AO1 SLP197 P0002 T00220006





000
SAUS41 KLWX 050956
MTRNAK
METAR KNAK 050954Z AUTO 33012KT 3SM -SN BR SCT010 OVC017 01/01 A3008
RMK AO2 UPB0859E04SNE0859B04 SLP188 P0004 T00110006





000
SAUS41 KLWX 050949
MTRNAK
SPECI KNAK 050947Z AUTO 33012KT 3SM -SN BR SCT010 OVC016 01/01 A3008
RMK AO2 UPB0859E04SNE0859B04 P0004 T00110006





000
SAUS41 KLWX 050937 COR
MTRRSP
SPECI KRSP 050927Z AUTO 4SM -SN BKN024 OVC043 M01/M04 RMK AO2 SNB20
P0000 $





000
SAUS41 KLWX 050904 COR
MTRRSP
METAR KRSP 050854Z AUTO 10SM OVC043 M01/M04 RMK AO2 SLPNO T10061044
$





000
SAUS41 KLWX 050858
MTRDMH
METAR KDMH 050854Z AUTO 02/01 A3010 RMK AO1 PRESRR SLP192 P0003
60007 T00220006 53006





000
SAUS41 KLWX 050858
MTRDMH
METAR KDMH 050854Z AUTO 02/01 A3010 RMK AO1 PRESRR SLP192 P0003
60007 T00220006 53006





000
SAUS41 KLWX 050856
MTRNAK
METAR KNAK 050854Z AUTO 33010KT 4SM -SN BR BKN011 OVC020 02/01 A3010
RMK AO2 RAE00SNB00 SLP193 P0004 60009 T00170011 53002





000
SAUS41 KLWX 050846
MTRNAK
SPECI KNAK 050844Z AUTO 30008KT 4SM -SN BR BKN009 OVC018 02/01 A3010
RMK AO2 RAE00SNB00 PRESRR P0004 T00170011





000
SAUS41 KLWX 050846
MTRNAK
SPECI KNAK 050844Z AUTO 30008KT 4SM -SN BR BKN009 OVC018 02/01 A3010
RMK AO2 RAE00SNB00 PRESRR P0004 T00170011





000
SAUS41 KLWX 050832
MTRNAK
SPECI KNAK 050830Z AUTO 33011KT 3SM -SN BR SCT010 OVC018 02/01 A3006
RMK AO2 RAE00SNB00 P0003 T00170011





000
SAUS41 KLWX 050832
MTRNAK
SPECI KNAK 050830Z AUTO 33011KT 3SM -SN BR SCT010 OVC018 02/01 A3006
RMK AO2 RAE00SNB00 P0003 T00170011





000
SAUS41 KLWX 050813
MTRNAK
SPECI KNAK 050812Z AUTO 34012KT 2SM -SN BR FEW012 OVC020 02/01 A3005
RMK AO2 RAE00SNB00 PRESFR P0002 T00170006





000
SAUS41 KLWX 050813
MTRNAK
SPECI KNAK 050812Z AUTO 34012KT 2SM -SN BR FEW012 OVC020 02/01 A3005
RMK AO2 RAE00SNB00 PRESFR P0002 T00170006





000
SAUS41 KLWX 050804 COR
MTRRSP
METAR KRSP 050754Z AUTO 10SM OVC043 00/M06 RMK AO2 SLPNO T00001056 $





000
SAUS41 KLWX 050758
MTRDMH
METAR KDMH 050754Z AUTO 03/00 A3008 RMK AO1 SLP184 P0003 T00280000





000
SAUS41 KLWX 050755
MTRNAK
METAR KNAK 050754Z AUTO 32008KT 4SM -RA BR SCT012 OVC022 02/01 A3010
RMK AO2 UPE20B33E43RAB05SNB34E41 SLP194 P0002 T00220011





000
SAUS41 KLWX 050731
MTRNAK
SPECI KNAK 050730Z AUTO 34012KT 3SM -RA BR BKN023 OVC065 02/01 A3007
RMK AO2 UPE20RAB05 P0001 T00220011





000
SAUS41 KLWX 050731
MTRNAK
SPECI KNAK 050730Z AUTO 34012KT 3SM -RA BR BKN023 OVC065 02/01 A3007
RMK AO2 UPE20RAB05 P0001 T00220011





000
SAUS41 KLWX 050704 COR
MTRRSP
METAR KRSP 050654Z AUTO 10SM OVC045 01/M06 RMK AO2 SLPNO T00061056 $





000
SAUS41 KLWX 050704 COR
MTRRSP
METAR KRSP 050654Z AUTO 10SM OVC045 01/M06 RMK AO2 SLPNO T00061056 $





000
SAUS41 KLWX 050658
MTRDMH
METAR KDMH 050654Z AUTO 04/M01 A3009 RMK AO1 SLP188 P0001 T00391011





000
SAUS41 KLWX 050658
MTRDMH
METAR KDMH 050654Z AUTO 04/M01 A3009 RMK AO1 SLP188 P0001 T00391011





000
SAUS41 KLWX 050655
MTRNAK
METAR KNAK 050654Z AUTO 32009KT 5SM UP BR BKN043 OVC070 03/01 A3008
RMK AO2 RAE24UPB47SNB24E47 SLP188 P0003 T00280006





000
SAUS41 KLWX 050655
MTRNAK
METAR KNAK 050654Z AUTO 32009KT 5SM UP BR BKN043 OVC070 03/01 A3008
RMK AO2 RAE24UPB47SNB24E47 SLP188 P0003 T00280006





000
SAUS41 KLWX 050604 COR
MTRRSP
METAR KRSP 050554Z AUTO 10SM FEW047 BKN070 OVC085 01/M06 RMK AO2
SLPNO T00061056 10017 20006 $





000
SAUS41 KLWX 050604 COR
MTRRSP
METAR KRSP 050554Z AUTO 10SM FEW047 BKN070 OVC085 01/M06 RMK AO2
SLPNO T00061056 10017 20006 $





000
SAUS41 KLWX 050558
MTRDMH
METAR KDMH 050554Z AUTO 06/M03 A3008 RMK AO1 SLP186 T00561028 10078
20056 55008





000
SAUS41 KLWX 050558
MTRDMH
METAR KDMH 050554Z AUTO 06/M03 A3008 RMK AO1 SLP186 T00561028 10078
20056 55008





000
SAUS41 KLWX 050555
MTRNAK
METAR KNAK 050554Z AUTO 34008KT 9SM -RA SCT043 OVC065 04/M01 A3009
RMK AO2 RAE36B52 SLP192 P0001 60002 T00441006 10072 20044 55003





000
SAUS41 KLWX 050555
MTRNAK
METAR KNAK 050554Z AUTO 34008KT 9SM -RA SCT043 OVC065 04/M01 A3009
RMK AO2 RAE36B52 SLP192 P0001 60002 T00441006 10072 20044 55003





000
SAUS41 KLWX 050504 COR
MTRRSP
METAR KRSP 050454Z AUTO 10SM FEW070 OVC085 01/M06 RMK AO2 SLPNO
T00061056 401170006 $





000
SAUS41 KLWX 050504 COR
MTRRSP
METAR KRSP 050454Z AUTO 10SM FEW070 OVC085 01/M06 RMK AO2 SLPNO
T00061056 401170006 $





000
SAUS41 KLWX 050458
MTRDMH
METAR KDMH 050454Z AUTO 06/M04 A3008 RMK AO1 SLP186 T00611039
401280061





000
SAUS41 KLWX 050458
MTRDMH
METAR KDMH 050454Z AUTO 06/M04 A3008 RMK AO1 SLP186 T00611039
401280061





000
SAUS41 KLWX 050455
MTRNAK
METAR KNAK 050454Z AUTO 33010KT 10SM -RA SCT050 OVC060 06/M01 A3008
RMK AO2 RAE14B47 SLP188 P0001 T00561011 401170056





000
SAUS41 KLWX 050404 COR
MTRRSP
METAR KRSP 050354Z AUTO 10SM FEW070 OVC090 01/M05 RMK AO2 SLPNO
T00061050 $





000
SAUS41 KLWX 050404 COR
MTRRSP
METAR KRSP 050354Z AUTO 10SM FEW070 OVC090 01/M05 RMK AO2 SLPNO
T00061050 $





000
SAUS41 KLWX 050358
MTRDMH
METAR KDMH 050354Z AUTO 07/M03 A3010 RMK AO1 SLP192 T00671033





000
SAUS41 KLWX 050355
MTRNAK
METAR KNAK 050354Z AUTO 31007KT 9SM -RA BKN049 OVC060 06/M01 A3010
RMK AO2 RAB0258 SLP196 P0000 T00611006





000
SAUS41 KLWX 050355
MTRNAK
METAR KNAK 050354Z AUTO 31007KT 9SM -RA BKN049 OVC060 06/M01 A3010
RMK AO2 RAB0258 SLP196 P0000 T00611006





000
SAUS41 KLWX 050304 COR
MTRRSP
METAR KRSP 050254Z AUTO 10SM OVC080 01/M06 RMK AO2 SLPNO T00111056 $





000
SAUS41 KLWX 050304 COR
MTRRSP
METAR KRSP 050254Z AUTO 10SM OVC080 01/M06 RMK AO2 SLPNO T00111056 $





000
SAUS41 KLWX 050258
MTRDMH
METAR KDMH 050254Z AUTO 07/M03 A3011 RMK AO1 SLP195 T00721033 53002





000
SAUS41 KLWX 050258
MTRDMH
METAR KDMH 050254Z AUTO 07/M03 A3011 RMK AO1 SLP195 T00721033 53002





000
SAUS41 KLWX 050255
MTRNAK
METAR KNAK 050254Z AUTO 33009KT 10SM OVC060 07/M01 A3010 RMK AO2
SLP194 T00671011 51001





000
SAUS41 KLWX 050204 COR
MTRRSP
METAR KRSP 050154Z AUTO 10SM FEW036 01/M05 RMK AO2 SLPNO T00111050 $





000
SAUS41 KLWX 050204 COR
MTRRSP
METAR KRSP 050154Z AUTO 10SM FEW036 01/M05 RMK AO2 SLPNO T00111050 $





000
SAUS41 KLWX 050200
MTRRYT
METAR KRYT 050153Z AUTO VRB03KT 10SM SCT046 BKN095 03/M04 A3012 RMK
AO2 SLP209 T00331044 $





000
SAUS41 KLWX 050200
MTRRYT
METAR KRYT 050153Z AUTO VRB03KT 10SM SCT046 BKN095 03/M04 A3012 RMK
AO2 SLP209 T00331044 $





000
SAUS41 KLWX 050158
MTRDMH
METAR KDMH 050154Z AUTO 07/M03 A3010 RMK AO1 SLP193 T00721028





000
SAUS41 KLWX 050158
MTRDMH
METAR KDMH 050154Z AUTO 07/M03 A3010 RMK AO1 SLP193 T00721028





000
SAUS41 KLWX 050155
MTRNAK
METAR KNAK 050154Z AUTO 33009KT 10SM OVC060 07/M01 A3010 RMK AO2
SLP194 T00671006





000
SAUS41 KLWX 050155
MTRNAK
METAR KNAK 050154Z AUTO 33009KT 10SM OVC060 07/M01 A3010 RMK AO2
SLP194 T00671006





000
SAUS41 KLWX 050104 COR
MTRRSP
METAR KRSP 050054Z AUTO 10SM OVC032 01/M04 RMK AO2 SLPNO T00111044 $





000
SAUS41 KLWX 050104 COR
MTRRSP
METAR KRSP 050054Z AUTO 10SM OVC032 01/M04 RMK AO2 SLPNO T00111044 $





000
SAUS41 KLWX 050100
MTRRYT
METAR KRYT 050053Z AUTO 00000KT 10SM FEW041 04/M04 A3010 RMK AO2
SLP203 T00391044 $





000
SAUS41 KLWX 050100
MTRRYT
METAR KRYT 050053Z AUTO 00000KT 10SM FEW041 04/M04 A3010 RMK AO2
SLP203 T00391044 $





000
SAUS41 KLWX 050058
MTRDMH
METAR KDMH 050054Z AUTO 08/M03 A3010 RMK AO1 SLP193 T00781028





000
SAUS41 KLWX 050058
MTRDMH
METAR KDMH 050054Z AUTO 08/M03 A3010 RMK AO1 SLP193 T00781028





000
SAUS41 KLWX 050055
MTRNAK
METAR KNAK 050054Z AUTO 34008KT 10SM BKN060 OVC080 07/M01 A3010 RMK
AO2 SLP195 T00721006





000
SAUS41 KLWX 050055
MTRNAK
METAR KNAK 050054Z AUTO 34008KT 10SM BKN060 OVC080 07/M01 A3010 RMK
AO2 SLP195 T00721006





000
SAUS41 KLWX 050004 COR
MTRRSP
METAR KRSP 042354Z AUTO 10SM BKN032 02/M04 RMK AO2 SLPNO T00171039
10050 20017 $





000
SAUS41 KLWX 050004 COR
MTRRSP
METAR KRSP 042354Z AUTO 10SM BKN032 02/M04 RMK AO2 SLPNO T00171039
10050 20017 $





000
SAUS41 KLWX 050000
MTRRYT
METAR KRYT 042353Z AUTO 34005KT 10SM BKN043 04/M04 A3009 RMK AO2
SLP199 T00391039 10072 20039 53014 $





000
SAUS41 KLWX 050000
MTRRYT
METAR KRYT 042353Z AUTO 34005KT 10SM BKN043 04/M04 A3009 RMK AO2
SLP199 T00391039 10072 20039 53014 $





000
SAUS41 KLWX 042358
MTRDMH
METAR KDMH 042354Z AUTO 08/M02 A3010 RMK AO1 SLP193 T00781022 10094
20078 51013





000
SAUS41 KLWX 042355
MTRNAK
METAR KNAK 042354Z AUTO 35005KT 10SM OVC060 07/00 A3010 RMK AO2
SLP193 T00720000 10089 20072 53010





000
SAUS41 KLWX 042355
MTRNAK
METAR KNAK 042354Z AUTO 35005KT 10SM OVC060 07/00 A3010 RMK AO2
SLP193 T00720000 10089 20072 53010





000
SAUS41 KLWX 042304 COR
MTRRSP
METAR KRSP 042254Z AUTO 10SM BKN032 02/M03 RMK AO2 SLPNO T00221033 $





000
SAUS41 KLWX 042304 COR
MTRRSP
METAR KRSP 042254Z AUTO 10SM BKN032 02/M03 RMK AO2 SLPNO T00221033 $





000
SAUS41 KLWX 042300
MTRRYT
METAR KRYT 042253Z AUTO VRB03KT 10SM CLR 05/M04 A3008 RMK AO2 SLP193
T00501039 $





000
SAUS41 KLWX 042300
MTRRYT
METAR KRYT 042253Z AUTO VRB03KT 10SM CLR 05/M04 A3008 RMK AO2 SLP193
T00501039 $





000
SAUS41 KLWX 042258
MTRDMH
METAR KDMH 042254Z AUTO 08/M02 A3009 RMK AO1 SLP190 T00831022





000
SAUS41 KLWX 042258
MTRDMH
METAR KDMH 042254Z AUTO 08/M02 A3009 RMK AO1 SLP190 T00831022





000
SAUS41 KLWX 042255
MTRNAK
METAR KNAK 042254Z AUTO 36007KT 10SM BKN060 OVC085 08/00 A3008 RMK
AO2 SLP188 T00780000





000
SAUS41 KLWX 042204 COR
MTRRSP
METAR KRSP 042154Z AUTO 10SM SCT085 03/M03 RMK AO2 SLPNO T00331033 $





000
SAUS41 KLWX 042204 COR
MTRRSP
METAR KRSP 042154Z AUTO 10SM SCT085 03/M03 RMK AO2 SLPNO T00331033 $





000
SAUS41 KLWX 042201 COR
MTRRYT
METAR KRYT 042153Z AUTO 01006KT 10SM FEW095 06/M04 A3006 RMK AO2
SLP186 T00561039 $





000
SAUS41 KLWX 042201 COR
MTRRYT
METAR KRYT 042153Z AUTO 01006KT 10SM FEW095 06/M04 A3006 RMK AO2
SLP186 T00561039 $





000
SAUS41 KLWX 042200 COR
MTRRYT
METAR KRYT 042153Z AUTO 01006KT 10SM FEW095 06/M04 A3006 RMK AO2
SLP186 T00561039 $





000
SAUS41 KLWX 042158
MTRDMH
METAR KDMH 042154Z AUTO 09/M02 A3008 RMK AO1 SLP186 T00891022





000
SAUS41 KLWX 042155
MTRNAK
METAR KNAK 042154Z AUTO 36006KT 10SM OVC080 08/00 A3008 RMK AO2
SLP186 T00780000





000
SAUS41 KLWX 042104 COR
MTRRSP
METAR KRSP 042054Z AUTO 10SM FEW085 04/M03 RMK AO2 SLPNO T00441033 $





000
SAUS41 KLWX 042101 COR
MTRRYT
METAR KRYT 042053Z AUTO 01004KT 10SM FEW042 07/M03 A3005 RMK AO2
SLP180 T00671033 53004 $





000
SAUS41 KLWX 042101 COR
MTRRYT
METAR KRYT 042053Z AUTO 01004KT 10SM FEW042 07/M03 A3005 RMK AO2
SLP180 T00671033 53004 $





000
SAUS41 KLWX 042100 COR
MTRRYT
METAR KRYT 042053Z AUTO 01004KT 10SM FEW042 07/M03 A3005 RMK AO2
SLP180 T00671033 53004 $





000
SAUS41 KLWX 042100
MTRRYT
METAR KRYT 042053Z AUTO 01004KT 10SM FEW042 07/M03 A3005 RMK AO2
SLP180 T00671033 53004 $





000
SAUS41 KLWX 042100
MTRRYT
METAR KRYT 042053Z AUTO 01004KT 10SM FEW042 07/M03 A3005 RMK AO2
SLP180 T00671033 53004 $





000
SAUS41 KLWX 042058
MTRDMH
METAR KDMH 042054Z AUTO 09/M02 A3006 RMK AO1 SLP180 T00891022 55002





000
SAUS41 KLWX 042058
MTRDMH
METAR KDMH 042054Z AUTO 09/M02 A3006 RMK AO1 SLP180 T00891022 55002





000
SAUS41 KLWX 042055
MTRNAK
METAR KNAK 042054Z AUTO 36007KT 10SM OVC055 08/M01 A3007 RMK AO2
SLP184 T00831006 53004





000
SAUS41 KLWX 042004 COR
MTRRSP
METAR KRSP 041954Z AUTO 10SM BKN050 05/M03 RMK AO2 SLPNO T00501028 $





000
SAUS41 KLWX 042001 COR
MTRRYT
METAR KRYT 041953Z AUTO 30006KT 10SM BKN065 07/M03 A3002 RMK AO2
SLP172 T00671033 $





000
SAUS41 KLWX 042001 COR
MTRRYT
METAR KRYT 041953Z AUTO 30006KT 10SM BKN065 07/M03 A3002 RMK AO2
SLP172 T00671033 $





000
SAUS41 KLWX 042000 COR
MTRRYT
METAR KRYT 041953Z AUTO 30006KT 10SM BKN065 07/M03 A3002 RMK AO2
SLP172 T00671033 $





000
SAUS41 KLWX 042000 COR
MTRRYT
METAR KRYT 041953Z AUTO 30006KT 10SM BKN065 07/M03 A3002 RMK AO2
SLP172 T00671033 $





000
SAUS41 KLWX 041958
MTRDMH
METAR KDMH 041954Z AUTO 09/M02 A3005 RMK AO1 SLP175 T00941022





000
SAUS41 KLWX 041955
MTRNAK
METAR KNAK 041954Z AUTO 35007KT 10SM OVC050 08/00 A3006 RMK AO2
SLP180 T00830000





000
SAUS41 KLWX 041904 COR
MTRRSP
METAR KRSP 041854Z AUTO 10SM FEW055 05/M03 RMK AO2 SLPNO T00501028 $





000
SAUS41 KLWX 041904 COR
MTRRSP
METAR KRSP 041854Z AUTO 10SM FEW055 05/M03 RMK AO2 SLPNO T00501028 $





000
SAUS41 KLWX 041900
MTRRYT
METAR KRYT 041853Z AUTO VRB04KT 10SM CLR 07/M03 A3003 RMK AO2 SLP173
T00671033 $





000
SAUS41 KLWX 041900
MTRRYT
METAR KRYT 041853Z AUTO VRB04KT 10SM CLR 07/M03 A3003 RMK AO2 SLP173
T00671033 $





000
SAUS41 KLWX 041858
MTRDMH
METAR KDMH 041854Z AUTO 09/M02 A3006 RMK AO1 SLP178 T00941022





000
SAUS41 KLWX 041858
MTRDMH
METAR KDMH 041854Z AUTO 09/M02 A3006 RMK AO1 SLP178 T00941022





000
SAUS41 KLWX 041856
MTRNAK
METAR KNAK 041854Z AUTO 35010KT 10SM OVC050 09/01 A3004 RMK AO2
SLP173 T00890006





000
SAUS41 KLWX 041856
MTRNAK
METAR KNAK 041854Z AUTO 35010KT 10SM OVC050 09/01 A3004 RMK AO2
SLP173 T00890006





000
SAUS41 KLWX 041804 COR
MTRRSP
METAR KRSP 041754Z AUTO 10SM OVC060 05/M02 RMK AO2 SLPNO T00501022
10050 20033 $





000
SAUS41 KLWX 041801 COR
MTRRYT
METAR KRYT 041753Z AUTO VRB03KT 10SM OVC070 07/M03 A3004 RMK AO2
SLP175 6//// T00671028 10067 20056 $





000
SAUS41 KLWX 041800 COR
MTRRYT
METAR KRYT 041753Z AUTO VRB03KT 10SM OVC070 07/M03 A3004 RMK AO2
SLP175 6//// T00671028 10067 20056 $





000
SAUS41 KLWX 041759
MTRRYT
METAR KRYT 041753Z AUTO VRB03KT 10SM OVC070 07/M03 A3004 RMK AO2
SLP175 6//// T00671028 10067 20056 $





000
SAUS41 KLWX 041758
MTRDMH
METAR KDMH 041754Z AUTO 09/M01 A3007 RMK AO1 SLP182 T00941006 10106
20094 50001





000
SAUS41 KLWX 041755
MTRNAK
METAR KNAK 041754Z AUTO 32011KT 10SM OVC050 09/00 A3006 RMK AO2
SLP179 T00890000 10111 20083 58004





000
SAUS41 KLWX 041704 COR
MTRRSP
METAR KRSP 041654Z AUTO 10SM OVC055 04/M03 RMK AO2 SLPNO T00441028 $





000
SAUS41 KLWX 041701 COR
MTRRYT
METAR KRYT 041653Z AUTO VRB05KT 10SM OVC065 06/M02 A3007 RMK AO2
SLP188 T00611022 $





000
SAUS41 KLWX 041701 COR
MTRRYT
METAR KRYT 041653Z AUTO VRB05KT 10SM OVC065 06/M02 A3007 RMK AO2
SLP188 T00611022 $





000
SAUS41 KLWX 041700 COR
MTRRYT
METAR KRYT 041653Z AUTO VRB05KT 10SM OVC065 06/M02 A3007 RMK AO2
SLP188 T00611022 $





000
SAUS41 KLWX 041700 COR
MTRRYT
METAR KRYT 041653Z AUTO VRB05KT 10SM OVC065 06/M02 A3007 RMK AO2
SLP188 T00611022 $





000
SAUS41 KLWX 041700
MTRRYT
METAR KRYT 041653Z AUTO VRB05KT 10SM OVC065 06/M02 A3007 RMK AO2
SLP188 T00611022 $





000
SAUS41 KLWX 041658
MTRDMH
METAR KDMH 041654Z AUTO 09/M01 A3009 RMK AO1 SLP189 T00941011





000
SAUS41 KLWX 041656
MTRNAK
METAR KNAK 041654Z AUTO 33010KT 10SM OVC048 09/01 A3008 RMK AO2
SLP186 T00890011





000
SAUS41 KLWX 041656
MTRNAK
METAR KNAK 041654Z AUTO 33010KT 10SM OVC048 09/01 A3008 RMK AO2
SLP186 T00890011





000
SAUS41 KLWX 041604 COR
MTRRSP
METAR KRSP 041554Z AUTO 10SM CLR 04/M02 RMK AO2 SLPNO T00441017 $





000
SAUS41 KLWX 041604 COR
MTRRSP
METAR KRSP 041554Z AUTO 10SM CLR 04/M02 RMK AO2 SLPNO T00441017 $





000
SAUS41 KLWX 041559
MTRRYT
METAR KRYT 041553Z AUTO VRB04KT 07/M02 A3007 RMK AO2 SLP188
T00671022 $





000
SAUS41 KLWX 041558
MTRDMH
METAR KDMH 041554Z AUTO 09/00 A3010 RMK AO1 SLP192 T00940000





000
SAUS41 KLWX 041555
MTRNAK
METAR KNAK 041554Z AUTO 33009KT 10SM OVC048 09/02 A3010 RMK AO2
SLP193 T00890022





000
SAUS41 KLWX 041555
MTRNAK
METAR KNAK 041554Z AUTO 33009KT 10SM OVC048 09/02 A3010 RMK AO2
SLP193 T00890022





000
SAUS41 KLWX 041504 COR
MTRRSP
METAR KRSP 041454Z AUTO 10SM CLR 04/M02 RMK AO2 SLPNO T00391022 $





000
SAUS41 KLWX 041504 COR
MTRRSP
METAR KRSP 041454Z AUTO 10SM CLR 04/M02 RMK AO2 SLPNO T00391022 $





000
SAUS41 KLWX 041501 COR
MTRRYT
METAR KRYT 041453Z AUTO VRB03KT 7SM FEW002 06/M02 A3005 RMK AO2
SLP182 P0001 60001 T00611017 51009 $





000
SAUS41 KLWX 041458
MTRDMH
METAR KDMH 041454Z AUTO 10/02 A3007 RMK AO1 SLP182 T01000017 51034





000
SAUS41 KLWX 041458
MTRDMH
METAR KDMH 041454Z AUTO 10/02 A3007 RMK AO1 SLP182 T01000017 51034





000
SAUS41 KLWX 041455
MTRNAK
METAR KNAK 041454Z AUTO 35009KT 10SM OVC047 09/04 A3007 RMK AO2
SLP184 T00940039 51035





000
SAUS41 KLWX 041452
MTRRYT
SPECI KRYT 041451Z AUTO 00000KT 7SM FEW002 06/M02 A3005 RMK AO2
P0001 $





000
SAUS41 KLWX 041404 COR
MTRRSP
METAR KRSP 041354Z AUTO 10SM CLR 03/M02 RMK AO2 SLPNO T00331022 $





000
SAUS41 KLWX 041401 COR
MTRRYT
METAR KRYT 041353Z AUTO VRB03KT 10SM CLR 06/M01 A3004 RMK AO2 SLP179
T00561011 $





000
SAUS41 KLWX 041400 COR
MTRRYT
METAR KRYT 041353Z AUTO VRB03KT 10SM CLR 06/M01 A3004 RMK AO2 SLP179
T00561011 $





000
SAUS41 KLWX 041400
MTRRYT
METAR KRYT 041353Z AUTO VRB03KT 10SM CLR 06/M01 A3004 RMK AO2 SLP179
T00561011 $





000
SAUS41 KLWX 041358
MTRDMH
METAR KDMH 041354Z AUTO 10/03 A3006 RMK AO1 PRESRR SLP177 T01000033





000
SAUS41 KLWX 041355
MTRNAK
METAR KNAK 041354Z AUTO 33008KT 10SM OVC049 09/05 A3005 RMK AO2
SLP179 T00940050





000
SAUS41 KLWX 041304 COR
MTRRSP
METAR KRSP 041254Z AUTO 10SM CLR 03/M01 RMK AO2 SLPNO T00331011 $





000
SAUS41 KLWX 041301 COR
MTRRYT
METAR KRYT 041253Z AUTO VRB05KT 10SM BKN048 06/00 A3003 RMK AO2
SLP172 T00610000 $





000
SAUS41 KLWX 041300 COR
MTRRYT
METAR KRYT 041253Z AUTO VRB05KT 10SM BKN048 06/00 A3003 RMK AO2
SLP172 T00610000 $





000
SAUS41 KLWX 041300 COR
MTRRYT
METAR KRYT 041253Z AUTO VRB05KT 10SM BKN048 06/00 A3003 RMK AO2
SLP172 T00610000 $





000
SAUS41 KLWX 041259
MTRRYT
METAR KRYT 041253Z AUTO VRB05KT 10SM BKN048 06/00 A3003 RMK AO2
SLP172 T00610000 $





000
SAUS41 KLWX 041259
MTRRYT
METAR KRYT 041253Z AUTO VRB05KT 10SM BKN048 06/00 A3003 RMK AO2
SLP172 T00610000 $





000
SAUS41 KLWX 041258
MTRDMH
METAR KDMH 041254Z AUTO 10/05 A3001 RMK AO1 SLP163 T01000050





000
SAUS41 KLWX 041258
MTRDMH
METAR KDMH 041254Z AUTO 10/05 A3001 RMK AO1 SLP163 T01000050





000
SAUS41 KLWX 041255
MTRNAK
METAR KNAK 041254Z AUTO 32006KT 10SM OVC049 10/07 A3001 RMK AO2
SLP164 T01000072





000
SAUS41 KLWX 041255
MTRNAK
METAR KNAK 041254Z AUTO 32006KT 10SM OVC049 10/07 A3001 RMK AO2
SLP164 T01000072





000
SAUS41 KLWX 041204 COR
MTRRSP
METAR KRSP 041154Z AUTO 10SM CLR 04/01 RMK AO2 SLPNO 70110 T00440006
10111 20044 $





000
SAUS41 KLWX 041201 COR
MTRRYT
METAR KRYT 041153Z AUTO VRB03KT 10SM CLR 06/02 A2998 RMK AO2 SLP157
70107 T00610017 10111 20061 53023 $





000
SAUS41 KLWX 041200 COR
MTRRYT
METAR KRYT 041153Z AUTO VRB03KT 10SM CLR 06/02 A2998 RMK AO2 SLP157
70107 T00610017 10111 20061 53023 $





000
SAUS41 KLWX 041158
MTRDMH
METAR KDMH 041154Z AUTO 11/06 A2997 RMK AO1 SLP148 60001 70054
T01060061 53028 $





000
SAUS41 KLWX 041158
MTRDMH
METAR KDMH 041154Z AUTO 11/06 A2997 RMK AO1 SLP148 60001 70054
T01060061 53028 $





000
SAUS41 KLWX 041155
MTRNAK
METAR KNAK 041154Z AUTO 31008KT 10SM SCT017 OVC050 11/09 A2997 RMK
AO2 SLP149 60001 70048 T01110089 10117 20072 53031





000
SAUS41 KLWX 041155
MTRNAK
METAR KNAK 041154Z AUTO 31008KT 10SM SCT017 OVC050 11/09 A2997 RMK
AO2 SLP149 60001 70048 T01110089 10117 20072 53031





000
SAUS41 KLWX 041144
MTRNAK
SPECI KNAK 041142Z AUTO 31009KT 10SM BKN018 OVC050 11/09 A2996 RMK
AO2 T01110094





000
SAUS41 KLWX 041144
MTRNAK
SPECI KNAK 041142Z AUTO 31009KT 10SM BKN018 OVC050 11/09 A2996 RMK
AO2 T01110094





000
SAUS41 KLWX 041104 COR
MTRRSP
METAR KRSP 041054Z AUTO 10SM CLR 05/03 RMK AO2 SLPNO T00500028 $





000
SAUS41 KLWX 041101 COR
MTRRYT
METAR KRYT 041053Z AUTO 00000KT 10SM SCT055 07/04 A2995 RMK AO2
SLP148 T00720039 $





000
SAUS41 KLWX 041101 COR
MTRRYT
METAR KRYT 041053Z AUTO 00000KT 10SM SCT055 07/04 A2995 RMK AO2
SLP148 T00720039 $





000
SAUS41 KLWX 041100 COR
MTRRYT
METAR KRYT 041053Z AUTO 00000KT 10SM SCT055 07/04 A2995 RMK AO2
SLP148 T00720039 $





000
SAUS41 KLWX 041058
MTRDMH
METAR KDMH 041054Z AUTO 12/10 A2993 RMK AO1 SLP134 T01220100 $





000
SAUS41 KLWX 041058
MTRDMH
METAR KDMH 041054Z AUTO 12/10 A2993 RMK AO1 SLP134 T01220100 $





000
SAUS41 KLWX 041055
MTRNAK
METAR KNAK 041054Z AUTO 29005KT 10SM SCT043 BKN050 11/11 A2993 RMK
AO2 RAB18E27 SLP137 P0000 T01110106





000
SAUS41 KLWX 041055
MTRNAK
METAR KNAK 041054Z AUTO 29005KT 10SM SCT043 BKN050 11/11 A2993 RMK
AO2 RAB18E27 SLP137 P0000 T01110106





000
SAUS41 KLWX 041031
MTRNAK
SPECI KNAK 041029Z AUTO 33007KT 6SM BR SCT014 BKN030 OVC039 11/10
A2991 RMK AO2 RAB18E27 P0000 T01060100





000
SAUS41 KLWX 041031
MTRNAK
SPECI KNAK 041029Z AUTO 33007KT 6SM BR SCT014 BKN030 OVC039 11/10
A2991 RMK AO2 RAB18E27 P0000 T01060100





000
SAUS41 KLWX 041026
MTRNAK
SPECI KNAK 041025Z AUTO 31005KT 2SM -RA BR SCT014 BKN020 OVC039
10/09 A2991 RMK AO2 VIS 3/4V5 RAB18 P0000 T01000094





000
SAUS41 KLWX 041021
MTRNAK
SPECI KNAK 041020Z AUTO 30003KT 1SM -RA BR BKN012 BKN017 OVC037
09/08 A2991 RMK AO2 RAB18 P0000 T00890083





000
SAUS41 KLWX 041004 COR
MTRRSP
METAR KRSP 040954Z AUTO 10SM CLR 06/04 RMK AO2 SLPNO T00560039 $





000
SAUS41 KLWX 041000
MTRRYT
METAR KRYT 040953Z AUTO 07003KT 10SM FEW048 07/04 A2993 RMK AO2
SLP139 T00720044 $





000
SAUS41 KLWX 041000
MTRRYT
METAR KRYT 040953Z AUTO 07003KT 10SM FEW048 07/04 A2993 RMK AO2
SLP139 T00720044 $





000
SAUS41 KLWX 040958
MTRDMH
METAR KDMH 040954Z AUTO 13/12 A2991 RMK AO1 SLP126 T01280122 $





000
SAUS41 KLWX 040955
MTRNAK
METAR KNAK 040954Z AUTO 00000KT 3/4SM BR FEW007 BKN010 OVC017 08/08
A2989 RMK AO2 RAB0855E05 SLP124 P0001 T00780078





000
SAUS41 KLWX 040933
MTRNAK
SPECI KNAK 040932Z AUTO 14003KT 1/2SM FG OVC010 08/08 A2988 RMK AO2
RAB0855E05 P0001 T00780078





000
SAUS41 KLWX 040931
MTRRYT
SPECI KRYT 040925Z AUTO VRB03KT 10SM SCT012 08/06 A2992 RMK AO2 $





000
SAUS41 KLWX 040923 COR
MTRRSP
SPECI KRSP 040913Z AUTO 10SM FEW006 07/05 RMK AO2 $





000
SAUS41 KLWX 040904 COR
MTRRSP
METAR KRSP 040854Z AUTO 10SM CLR 07/05 RMK AO2 SLPNO T00720050 $





000
SAUS41 KLWX 040904 COR
MTRRSP
METAR KRSP 040854Z AUTO 10SM CLR 07/05 RMK AO2 SLPNO T00720050 $





000
SAUS41 KLWX 040900
MTRRYT
METAR KRYT 040853Z AUTO 00000KT 10SM BKN012 09/07 A2991 RMK AO2
SLP131 T00940072 53021 $





000
SAUS41 KLWX 040900
MTRRYT
METAR KRYT 040853Z AUTO 00000KT 10SM BKN012 09/07 A2991 RMK AO2
SLP131 T00940072 53021 $





000
SAUS41 KLWX 040858
MTRDMH
METAR KDMH 040854Z AUTO A2988 RMK AO1 SLP120 P0001 60001 55000 $





000
SAUS41 KLWX 040855
MTRNAK
METAR KNAK 040854Z AUTO 00000KT 1/2SM FG OVC006 09/09 A2987 RMK AO2
RAB44E53 SLP118 P0000 60000 T00890089 55000





000
SAUS41 KLWX 040822 COR
MTRRSP
SPECI KRSP 040812Z AUTO 10SM FEW005 SCT021 09/08 RMK AO2 $





000
SAUS41 KLWX 040822
MTRRYT
SPECI KRYT 040815Z AUTO 00000KT 10SM SCT005 09/09 A2987 RMK AO2 $





000
SAUS41 KLWX 040820
MTRNAK
SPECI KNAK 040818Z AUTO 17003KT 1/2SM FG OVC005 08/08 A2987 RMK AO2
T00830083





000
SAUS41 KLWX 040820
MTRNAK
SPECI KNAK 040818Z AUTO 17003KT 1/2SM FG OVC005 08/08 A2987 RMK AO2
T00830083





000
SAUS41 KLWX 040804 COR
MTRRSP
METAR KRSP 040754Z AUTO 10SM FEW003 SCT006 BKN021 09/08 RMK AO2
SLPNO T00940083 $





000
SAUS41 KLWX 040804 COR
MTRRSP
METAR KRSP 040754Z AUTO 10SM FEW003 SCT006 BKN021 09/08 RMK AO2
SLPNO T00940083 $





000
SAUS41 KLWX 040801 COR
MTRRYT
METAR KRYT 040753Z AUTO VRB03KT 8SM BKN005 BKN012 OVC046 11/10 A2987
RMK AO2 SLP119 T01060100 $





000
SAUS41 KLWX 040801 COR
MTRRYT
METAR KRYT 040753Z AUTO VRB03KT 8SM BKN005 BKN012 OVC046 11/10 A2987
RMK AO2 SLP119 T01060100 $





000
SAUS41 KLWX 040800
MTRNAK
SPECI KNAK 040758Z AUTO 17003KT 1 3/4SM BR OVC005 10/09 A2987 RMK
AO2 VIS 1/2V5 T01000094





000
SAUS41 KLWX 040800
MTRRYT
METAR KRYT 040753Z AUTO VRB03KT 8SM BKN005 BKN012 OVC046 11/10 A2987
RMK AO2 SLP119 T01060100 $





000
SAUS41 KLWX 040758
MTRDMH
METAR KDMH 040754Z AUTO A2987 RMK AO1 SLP116 $





000
SAUS41 KLWX 040756
MTRNAK
METAR KNAK 040754Z AUTO 17003KT 3SM BR BKN005 OVC010 11/10 A2987 RMK
AO2 SLP117 T01060100





000
SAUS41 KLWX 040752 COR
MTRRSP
SPECI KRSP 040744Z AUTO 10SM SCT003 BKN006 OVC020 10/09 RMK AO2 $





000
SAUS41 KLWX 040745
MTRRYT
SPECI KRYT 040744Z AUTO VRB04KT 2 1/2SM BR SCT005 BKN012 OVC043
11/10 A2987 RMK AO2 VIS 3/4V5 $





000
SAUS41 KLWX 040744 COR
MTRRYT
SPECI KRYT 040739Z AUTO VRB03KT 1SM BR FEW003 BKN019 OVC044 11/10
A2986 RMK AO2 VIS 1/4V5 $





000
SAUS41 KLWX 040743
MTRRYT
SPECI KRYT 040739Z AUTO VRB03KT 1SM BR FEW003 BKN019 OVC044 11/10
A2986 RMK AO2 VIS 1/4V5 $





000
SAUS41 KLWX 040736 COR
MTRRYT
SPECI KRYT 040734Z AUTO 00000KT 3/4SM BR FEW001 BKN041 OVC048 10/09
A2986 RMK AO2 VIS 1/4V5 $





000
SAUS41 KLWX 040735 COR
MTRRYT
SPECI KRYT 040734Z AUTO 00000KT 3/4SM BR FEW001 BKN041 OVC048 10/09
A2986 RMK AO2 VIS 1/4V5 $





000
SAUS41 KLWX 040732
MTRNAK
SPECI KNAK 040731Z AUTO 18004KT 3SM BR OVC006 11/11 A2987 RMK AO2
T01060106





000
SAUS41 KLWX 040725
MTRNAK
SPECI KNAK 040724Z AUTO 17006KT 1 3/4SM BR OVC006 11/11 A2987 RMK
AO2 T01060106





000
SAUS41 KLWX 040718
MTRRYT
SPECI KRYT 040711Z AUTO 00000KT 2SM BR SCT016 OVC040 10/09 A2985 RMK
AO2 $





000
SAUS41 KLWX 040718
MTRRYT
SPECI KRYT 040711Z AUTO 00000KT 2SM BR SCT016 OVC040 10/09 A2985 RMK
AO2 $





000
SAUS41 KLWX 040711 COR
MTRRYT
SPECI KRYT 040709Z AUTO 00000KT 2SM BR SCT013 BKN018 OVC038 10/09
A2985 RMK AO2 $





000
SAUS41 KLWX 040710
MTRRYT
SPECI KRYT 040709Z AUTO 00000KT 2SM BR SCT013 BKN018 OVC038 10/09
A2985 RMK AO2 $





000
SAUS41 KLWX 040710
MTRRYT
SPECI KRYT 040709Z AUTO 00000KT 2SM BR SCT013 BKN018 OVC038 10/09
A2985 RMK AO2 $





000
SAUS41 KLWX 040704 COR
MTRRSP
METAR KRSP 040654Z AUTO 1/4SM FG VV001 11/10 RMK AO2 SLPNO T01060100
$





000
SAUS41 KLWX 040701 COR
MTRRYT
METAR KRYT 040653Z AUTO 00000KT 1 1/4SM BR SCT007 OVC015 10/09 A2985
RMK AO2 VIS 1/4V5 SLP112 T01000094 $





000
SAUS41 KLWX 040701 COR
MTRRYT
METAR KRYT 040653Z AUTO 00000KT 1 1/4SM BR SCT007 OVC015 10/09 A2985
RMK AO2 VIS 1/4V5 SLP112 T01000094 $





000
SAUS41 KLWX 040700 COR
MTRRYT
METAR KRYT 040653Z AUTO 00000KT 1 1/4SM BR SCT007 OVC015 10/09 A2985
RMK AO2 VIS 1/4V5 SLP112 T01000094 $





000
SAUS41 KLWX 040700 COR
MTRRYT
METAR KRYT 040653Z AUTO 00000KT 1 1/4SM BR SCT007 OVC015 10/09 A2985
RMK AO2 VIS 1/4V5 SLP112 T01000094 $





000
SAUS41 KLWX 040659
MTRRYT
METAR KRYT 040653Z AUTO 00000KT 1 1/4SM BR SCT007 OVC015 10/09 A2985
RMK AO2 VIS 1/4V5 SLP112 T01000094 $





000
SAUS41 KLWX 040659
MTRRYT
METAR KRYT 040653Z AUTO 00000KT 1 1/4SM BR SCT007 OVC015 10/09 A2985
RMK AO2 VIS 1/4V5 SLP112 T01000094 $





000
SAUS41 KLWX 040658
MTRDMH
METAR KDMH 040654Z AUTO A2987 RMK AO1 SLP116 $





000
SAUS41 KLWX 040655
MTRNAK
METAR KNAK 040654Z AUTO 16007KT 1/2SM FG VV005 11/11 A2987 RMK AO2
SLP115 T01110106





000
SAUS41 KLWX 040655
MTRNAK
METAR KNAK 040654Z AUTO 16007KT 1/2SM FG VV005 11/11 A2987 RMK AO2
SLP115 T01110106





000
SAUS41 KLWX 040628
MTRRYT
SPECI KRYT 040621Z AUTO 00000KT 5SM BR OVC007 11/10 A2985 RMK AO2 $





000
SAUS41 KLWX 040628
MTRRYT
SPECI KRYT 040621Z AUTO 00000KT 5SM BR OVC007 11/10 A2985 RMK AO2 $





000
SAUS41 KLWX 040622
MTRNAK
SPECI KNAK 040621Z AUTO 17007KT 3/4SM BR VV005 11/11 A2987 RMK AO2
T01110111





000
SAUS41 KLWX 040622
MTRNAK
SPECI KNAK 040621Z AUTO 17007KT 3/4SM BR VV005 11/11 A2987 RMK AO2
T01110111





000
SAUS41 KLWX 040620
MTRRYT
SPECI KRYT 040614Z AUTO 00000KT 2 1/2SM BR OVC007 10/10 A2985 RMK
AO2 VIS 3/4V5 $





000
SAUS41 KLWX 040620
MTRRYT
SPECI KRYT 040614Z AUTO 00000KT 2 1/2SM BR OVC007 10/10 A2985 RMK
AO2 VIS 3/4V5 $





000
SAUS41 KLWX 040604 COR
MTRRSP
METAR KRSP 040554Z AUTO 1/4SM FG VV001 11/11 RMK AO2 SLPNO 60001
T01110111 10117 20106 $





000
SAUS41 KLWX 040601 COR
MTRRYT
SPECI KRYT 040600Z AUTO 00000KT 1 1/4SM BR OVC007 11/10 A2984 RMK
AO2 VIS 1/4V5 $





000
SAUS41 KLWX 040558
MTRNAK
SPECI KNAK 040557Z AUTO 16006KT 1 3/4SM BR OVC005 11/11 A2987 RMK
AO2 T01110111





000
SAUS41 KLWX 040558
MTRDMH
METAR KDMH 040554Z AUTO A2988 RMK AO1 SLP120 57010 $





000
SAUS41 KLWX 040556
MTRNAK
METAR KNAK 040554Z AUTO 16006KT 3SM BR OVC005 11/11 A2988 RMK AO2
SLP118 60000 T01110111 10144 20094 58008





000
SAUS41 KLWX 040556
MTRNAK
METAR KNAK 040554Z AUTO 16006KT 3SM BR OVC005 11/11 A2988 RMK AO2
SLP118 60000 T01110111 10144 20094 58008





000
SAUS41 KLWX 040504 COR
MTRRSP
METAR KRSP 040454Z AUTO 1/4SM FG VV002 12/11 RMK AO2 SLPNO T01170111
401170017 $





000
SAUS41 KLWX 040504 COR
MTRRSP
METAR KRSP 040454Z AUTO 1/4SM FG VV002 12/11 RMK AO2 SLPNO T01170111
401170017 $





000
SAUS41 KLWX 040501 COR
MTRRYT
METAR KRYT 040453Z AUTO 22008KT 10SM OVC007 12/11 A2984 RMK AO2
SLP108 T01170106 401220028 $





000
SAUS41 KLWX 040501 COR
MTRRYT
METAR KRYT 040453Z AUTO 22008KT 10SM OVC007 12/11 A2984 RMK AO2
SLP108 T01170106 401220028 $





000
SAUS41 KLWX 040500
MTRRYT
METAR KRYT 040453Z AUTO 22008KT 10SM OVC007 12/11 A2984 RMK AO2
SLP108 T01170106 401220028 $





000
SAUS41 KLWX 040500
MTRRYT
METAR KRYT 040453Z AUTO 22008KT 10SM OVC007 12/11 A2984 RMK AO2
SLP108 T01170106 401220028 $





000
SAUS41 KLWX 040458
MTRDMH
METAR KDMH 040454Z AUTO A2989 RMK AO1 SLP123 401330044 $





000
SAUS41 KLWX 040456
MTRNAK
METAR KNAK 040454Z AUTO 17007KT 10SM BKN006 OVC011 11/11 A2989 RMK
AO2 SLP125 T01060106 401440044





000
SAUS41 KLWX 040435
MTRNAK
SPECI KNAK 040434Z AUTO 16006KT 7SM BKN005 OVC015 10/10 A2990 RMK
AO2 T01000100





000
SAUS41 KLWX 040418
MTRNAK
SPECI KNAK 040417Z AUTO 16006KT 7SM FEW005 OVC015 11/11 A2990 RMK
AO2 T01110106





000
SAUS41 KLWX 040418
MTRNAK
SPECI KNAK 040417Z AUTO 16006KT 7SM FEW005 OVC015 11/11 A2990 RMK
AO2 T01110106





000
SAUS41 KLWX 040406
MTRNAK
SPECI KNAK 040405Z AUTO 16006KT 7SM SCT005 BKN014 OVC033 11/11 A2990
RMK AO2 T01060106





000
SAUS41 KLWX 040404 COR
MTRRSP
METAR KRSP 040354Z AUTO 1/2SM FG VV002 12/11 RMK AO2 SLPNO P0001
T01170111 $





000
SAUS41 KLWX 040400
MTRRYT
METAR KRYT 040353Z AUTO 24003KT 4SM BR OVC007 11/10 A2984 RMK AO2
SLP110 T01110100 $





000
SAUS41 KLWX 040358
MTRDMH
METAR KDMH 040354Z AUTO A2990 RMK AO1 SLP126 $





000
SAUS41 KLWX 040358 COR
MTRNAK
METAR KNAK 040354Z AUTO 17008KT 10SM BKN013 OVC035 11/11 A2990 RMK
AO2 SLP128 T01060106





000
SAUS41 KLWX 040344
MTRRYT
SPECI KRYT 040337Z AUTO VRB03KT 3SM BR OVC007 09/09 A2984 RMK AO2 $





000
SAUS41 KLWX 040327
MTRRYT
SPECI KRYT 040320Z AUTO 00000KT 3SM BR OVC007 09/09 A2984 RMK AO2 $





000
SAUS41 KLWX 040327
MTRRYT
SPECI KRYT 040320Z AUTO 00000KT 3SM BR OVC007 09/09 A2984 RMK AO2 $





000
SAUS41 KLWX 040304 COR
MTRRSP
METAR KRSP 040254Z AUTO 1/4SM FG VV001 11/11 RMK AO2 SLPNO T01110106
$





000
SAUS41 KLWX 040301 COR
MTRRYT
METAR KRYT 040253Z AUTO 00000KT 1SM BR OVC005 09/09 A2984 RMK AO2
VIS 1/2V5 SLP111 T00890089 50007 $





000
SAUS41 KLWX 040300 COR
MTRRYT
METAR KRYT 040253Z AUTO 00000KT 1SM BR OVC005 09/09 A2984 RMK AO2
VIS 1/2V5 SLP111 T00890089 50007 $





000
SAUS41 KLWX 040259
MTRRYT
METAR KRYT 040253Z AUTO 00000KT 1SM BR OVC005 09/09 A2984 RMK AO2
VIS 1/2V5 SLP111 T00890089 50007 $





000
SAUS41 KLWX 040258
MTRDMH
METAR KDMH 040254Z AUTO A2991 RMK AO1 SLP130 51013 $





000
SAUS41 KLWX 040258
MTRDMH
METAR KDMH 040254Z AUTO A2991 RMK AO1 SLP130 51013 $





000
SAUS41 KLWX 040255
MTRNAK
METAR KNAK 040254Z AUTO 19005KT 10SM OVC012 14/13 A2990 RMK AO2
SLP126 60000 T01390133 51025





000
SAUS41 KLWX 040245 COR
MTRRYT
SPECI KRYT 040237Z AUTO 00000KT 1SM BR OVC005 09/09 A2984 RMK AO2
VIS 1/4V3 $





000
SAUS41 KLWX 040244 COR
MTRRYT
SPECI KRYT 040237Z AUTO 00000KT 1SM BR OVC005 09/09 A2984 RMK AO2
VIS 1/4V3 $





000
SAUS41 KLWX 040234
MTRNAK
SPECI KNAK 040233Z AUTO 18006KT 10SM OVC014 14/13 A2990 RMK AO2
T01390133





000
SAUS41 KLWX 040234
MTRNAK
SPECI KNAK 040233Z AUTO 18006KT 10SM OVC014 14/13 A2990 RMK AO2
T01390133





000
SAUS41 KLWX 040215
MTRRYT
SPECI KRYT 040208Z AUTO 00000KT 1 1/4SM BR OVC007 09/09 A2984 RMK
AO2 $





000
SAUS41 KLWX 040215
MTRRYT
SPECI KRYT 040208Z AUTO 00000KT 1 1/4SM BR OVC007 09/09 A2984 RMK
AO2 $





000
SAUS41 KLWX 040214
MTRNAK
SPECI KNAK 040212Z AUTO 20007KT 10SM SCT009 OVC016 14/13 A2991 RMK
AO2 T01440133





000
SAUS41 KLWX 040200
MTRRYT
METAR KRYT 040153Z AUTO 00000KT 4SM BR OVC009 10/09 A2984 RMK AO2
SLP111 T01000089 $





000
SAUS41 KLWX 040200
MTRRYT
METAR KRYT 040153Z AUTO 00000KT 4SM BR OVC009 10/09 A2984 RMK AO2
SLP111 T01000089 $





000
SAUS41 KLWX 040158
MTRDMH
METAR KDMH 040154Z AUTO 12/11 A2991 RMK AO1 SLP128 T01220111





000
SAUS41 KLWX 040158
MTRDMH
METAR KDMH 040154Z AUTO 12/11 A2991 RMK AO1 SLP128 T01220111





000
SAUS41 KLWX 040155
MTRNAK
METAR KNAK 040154Z AUTO 18011G21KT 10SM OVC009 14/13 A2990 RMK AO2
SLP126 T01440133





000
SAUS41 KLWX 040148
MTRNAK
SPECI KNAK 040147Z AUTO 19012G17KT 10SM OVC011 14/13 A2990 RMK AO2
CIG 008V013 T01390133





000
SAUS41 KLWX 040141
MTRNAK
SPECI KNAK 040140Z AUTO 19010G17KT 10SM BKN009 OVC015 14/13 A2990
RMK AO2 CIG 008V014 T01390133





000
SAUS41 KLWX 040119
MTRNAK
SPECI KNAK 040118Z AUTO 19007G15KT 10SM BKN011 13/13 A2990 RMK AO2
T01330128





000
SAUS41 KLWX 040104
MTRNAK
SPECI KNAK 040103Z AUTO 19012G19KT 10SM BKN009 13/13 A2989 RMK AO2
CIG 008V012 T01280128





000
SAUS41 KLWX 040104 COR
MTRRSP
METAR KRSP 040054Z AUTO 1/4SM FG VV002 11/10 RMK AO2 SLPNO T01060100
$





000
SAUS41 KLWX 040104 COR
MTRRSP
METAR KRSP 040054Z AUTO 1/4SM FG VV002 11/10 RMK AO2 SLPNO T01060100
$





000
SAUS41 KLWX 040104
MTRNAK
SPECI KNAK 040103Z AUTO 19012G19KT 10SM BKN009 13/13 A2989 RMK AO2
CIG 008V012 T01280128





000
SAUS41 KLWX 040101 COR
MTRRYT
METAR KRYT 040053Z AUTO 25005KT 10SM OVC011 11/10 A2983 RMK AO2
SLP107 T01110100 $





000
SAUS41 KLWX 040101 COR
MTRRYT
METAR KRYT 040053Z AUTO 25005KT 10SM OVC011 11/10 A2983 RMK AO2
SLP107 T01110100 $





000
SAUS41 KLWX 040100
MTRRYT
METAR KRYT 040053Z AUTO 25005KT 10SM OVC011 11/10 A2983 RMK AO2
SLP107 T01110100 $





000
SAUS41 KLWX 040100
MTRRYT
METAR KRYT 040053Z AUTO 25005KT 10SM OVC011 11/10 A2983 RMK AO2
SLP107 T01110100 $





000
SAUS41 KLWX 040058
MTRDMH
METAR KDMH 040054Z AUTO 13/12 A2990 RMK AO1 SLP126 T01330117





000
SAUS41 KLWX 040058
MTRDMH
METAR KDMH 040054Z AUTO 13/12 A2990 RMK AO1 SLP126 T01330117





000
SAUS41 KLWX 040055
MTRNAK
METAR KNAK 040054Z AUTO 19009KT 10SM SCT009 13/12 A2989 RMK AO2
RAE03 SLP123 P0000 T01280122





000
SAUS41 KLWX 040055
MTRNAK
METAR KNAK 040054Z AUTO 19009KT 10SM SCT009 13/12 A2989 RMK AO2
RAE03 SLP123 P0000 T01280122





000
SAUS41 KLWX 040033
MTRNAK
SPECI KNAK 040032Z AUTO 21007KT 180V240 10SM BKN009 OVC013 13/13
A2989 RMK AO2 RAE03 CIG 007V012 P0000 T01280128





000
SAUS41 KLWX 040029
MTRRYT
SPECI KRYT 040022Z AUTO 24006KT 10SM BKN011 11/09 A2982 RMK AO2 $





000
SAUS41 KLWX 040025
MTRNAK
SPECI KNAK 040024Z AUTO 19009KT 10SM BKN010 BKN013 13/13 A2988 RMK
AO2 RAE03 CIG 007V011 P0000 T01280128





000
SAUS41 KLWX 040025
MTRNAK
SPECI KNAK 040024Z AUTO 19009KT 10SM BKN010 BKN013 13/13 A2988 RMK
AO2 RAE03 CIG 007V011 P0000 T01280128





000
SAUS41 KLWX 040018
MTRNAK
SPECI KNAK 040017Z AUTO 23006KT 10SM SCT010 BKN100 13/13 A2988 RMK
AO2 RAE03 P0000 T01280128





000
SAUS41 KLWX 040018
MTRNAK
SPECI KNAK 040017Z AUTO 23006KT 10SM SCT010 BKN100 13/13 A2988 RMK
AO2 RAE03 P0000 T01280128





000
SAUS41 KLWX 040013
MTRNAK
SPECI KNAK 040012Z AUTO 21006KT 10SM BKN010 BKN110 13/13 A2986 RMK
AO2 RAE03 P0000 T01280128





000
SAUS41 KLWX 040013
MTRNAK
SPECI KNAK 040012Z AUTO 21006KT 10SM BKN010 BKN110 13/13 A2986 RMK
AO2 RAE03 P0000 T01280128





000
SAUS41 KLWX 040006
MTRNAK
SPECI KNAK 040004Z AUTO 17005KT 5SM BR SCT008 BKN110 11/11 A2985 RMK
AO2 RAE03 P0000 T01060106





000
SAUS41 KLWX 040006
MTRNAK
SPECI KNAK 040004Z AUTO 17005KT 5SM BR SCT008 BKN110 11/11 A2985 RMK
AO2 RAE03 P0000 T01060106





000
SAUS41 KLWX 040004 COR
MTRRSP
METAR KRSP 032354Z AUTO 1/2SM FG BKN003 11/10 RMK AO2 SLPNO 60003
T01060100 10111 20083 $





000
SAUS41 KLWX 040004 COR
MTRRSP
METAR KRSP 032354Z AUTO 1/2SM FG BKN003 11/10 RMK AO2 SLPNO 60003
T01060100 10111 20083 $





000
SAUS41 KLWX 040002
MTRNAK
SPECI KNAK 040001Z AUTO 14010G20KT 1SM -RA BR FEW005 BKN011 BKN110
11/11 A2983 RMK AO2 P0000 T01110106





000
SAUS41 KLWX 040002
MTRNAK
SPECI KNAK 040001Z AUTO 14010G20KT 1SM -RA BR FEW005 BKN011 BKN110
11/11 A2983 RMK AO2 P0000 T01110106





000
SAUS41 KLWX 040000
MTRRYT
METAR KRYT 032353Z AUTO 00000KT 10SM CLR 09/08 A2982 RMK AO2 SLP104
60003 T00890078 10100 20050 53020 $





000
SAUS41 KLWX 040000
MTRRYT
METAR KRYT 032353Z AUTO 00000KT 10SM CLR 09/08 A2982 RMK AO2 SLP104
60003 T00890078 10100 20050 53020 $





000
SAUS41 KLWX 032358
MTRDMH
METAR KDMH 032354Z AUTO 12/12 A2988 RMK AO1 SLP117 P0001 60046
T01220117 10122 20072 55009





000
SAUS41 KLWX 032356
MTRNAK
METAR KNAK 032354Z AUTO 14015G20KT 1/4SM -RA FG BKN007 BKN095 OVC120
09/09 A2982 RMK AO2 RAE35B54 SLP101 P0002 60045 T00890089 10111
20067 58023





000
SAUS41 KLWX 032355 COR
MTRRSP
SPECI KRSP 032350Z AUTO 1 3/4SM BR BKN003 11/10 RMK AO2 $





000
SAUS41 KLWX 032332 COR
MTRRSP
SPECI KRSP 032322Z AUTO 10SM SCT003 11/09 RMK AO2 $





000
SAUS41 KLWX 032332 COR
MTRRSP
SPECI KRSP 032322Z AUTO 10SM SCT003 11/09 RMK AO2 $





000
SAUS41 KLWX 032330
MTRNAK
SPECI KNAK 032329Z AUTO 13017KT 1/4SM -RA FG VV005 10/09 A2982 RMK
AO2 P0002 T01000094





000
SAUS41 KLWX 032330
MTRNAK
SPECI KNAK 032329Z AUTO 13017KT 1/4SM -RA FG VV005 10/09 A2982 RMK
AO2 P0002 T01000094





000
SAUS41 KLWX 032323
MTRNAK
SPECI KNAK 032322Z AUTO 14022KT 1/2SM -RA FG VV005 09/09 A2982 RMK
AO2 PRESFR P0001 T00890089





000
SAUS41 KLWX 032304 COR
MTRRSP
METAR KRSP 032254Z AUTO 10SM BKN003 10/09 RMK AO2 CIG 002V006 SLPNO
T01000089 $





000
SAUS41 KLWX 032304 COR
MTRRSP
METAR KRSP 032254Z AUTO 10SM BKN003 10/09 RMK AO2 CIG 002V006 SLPNO
T01000089 $





000
SAUS41 KLWX 032301 COR
MTRRYT
METAR KRYT 032253Z AUTO 20004KT 10SM CLR 09/08 A2979 RMK AO2 SLP096
T00890078 $





000
SAUS41 KLWX 032301 COR
MTRRYT
METAR KRYT 032253Z AUTO 20004KT 10SM CLR 09/08 A2979 RMK AO2 SLP096
T00890078 $





000
SAUS41 KLWX 032300
MTRRYT
METAR KRYT 032253Z AUTO 20004KT 10SM CLR 09/08 A2979 RMK AO2 SLP096
T00890078 $





000
SAUS41 KLWX 032300 COR
MTRRYT
METAR KRYT 032253Z AUTO 20004KT 10SM CLR 09/08 A2979 RMK AO2 SLP096
T00890078 $





000
SAUS41 KLWX 032300
MTRRYT
METAR KRYT 032253Z AUTO 20004KT 10SM CLR 09/08 A2979 RMK AO2 SLP096
T00890078 $





000
SAUS41 KLWX 032300 COR
MTRRYT
METAR KRYT 032253Z AUTO 20004KT 10SM CLR 09/08 A2979 RMK AO2 SLP096
T00890078 $





000
SAUS41 KLWX 032258
MTRDMH
METAR KDMH 032254Z AUTO 09/09 A2982 RMK AO1 PRESFR SLP098 P0005
T00940089





000
SAUS41 KLWX 032258
MTRDMH
METAR KDMH 032254Z AUTO 09/09 A2982 RMK AO1 PRESFR SLP098 P0005
T00940089





000
SAUS41 KLWX 032256
MTRNAK
METAR KNAK 032254Z AUTO 14011KT 1/4SM -RA FG VV005 08/08 A2990 RMK
AO2 SLP125 P0003 T00830083





000
SAUS41 KLWX 032237
MTRNAK
SPECI KNAK 032236Z AUTO 16005KT 3/4SM -RA BR VV005 10/10 A2990 RMK
AO2 P0001 T01000100





000
SAUS41 KLWX 032216
MTRNAK
SPECI KNAK 032215Z AUTO 14005KT 1/4SM -RA FG VV006 09/09 A2990 RMK
AO2 P0000 T00940094





000
SAUS41 KLWX 032216
MTRNAK
SPECI KNAK 032215Z AUTO 14005KT 1/4SM -RA FG VV006 09/09 A2990 RMK
AO2 P0000 T00940094





000
SAUS41 KLWX 032213
MTRRSP
SPECI KRSP 032211Z AUTO 10SM BKN003 10/09 RMK AO2 $





000
SAUS41 KLWX 032204 COR
MTRRSP
METAR KRSP 032154Z AUTO M1/4SM FG BKN001 OVC005 08/08 RMK AO2 SLPNO
T00830078 $





000
SAUS41 KLWX 032201 COR
MTRRYT
METAR KRYT 032153Z AUTO VRB03KT 10SM BKN110 09/08 A2974 RMK AO2
PRESFR SLP078 T00940078 $





000
SAUS41 KLWX 032200
MTRRYT
METAR KRYT 032153Z AUTO VRB03KT 10SM BKN110 09/08 A2974 RMK AO2
PRESFR SLP078 T00940078 $





000
SAUS41 KLWX 032158
MTRDMH
METAR KDMH 032154Z AUTO 09/08 A2989 RMK AO1 SLP122 P0004 T00890078





000
SAUS41 KLWX 032158
MTRDMH
METAR KDMH 032154Z AUTO 09/08 A2989 RMK AO1 SLP122 P0004 T00890078





000
SAUS41 KLWX 032155
MTRNAK
METAR KNAK 032154Z AUTO 12009KT 1/4SM -RA FG SCT005 BKN012 OVC075
08/07 A2989 RMK AO2 SLP124 P0005 T00780072





000
SAUS41 KLWX 032154 COR
MTRRSP
SPECI KRSP 032144Z AUTO 1/4SM FG BKN002 BKN005 OVC110 09/08 RMK AO2
$





000
SAUS41 KLWX 032146
MTRNAK
SPECI KNAK 032145Z AUTO 14006KT 1/4SM -RA FG BKN012 BKN075 OVC095
08/08 A2990 RMK AO2 P0004 T00830083





000
SAUS41 KLWX 032136 COR
MTRRSP
SPECI KRSP 032128Z AUTO 3/4SM BR SCT002 OVC110 09/08 RMK AO2 $





000
SAUS41 KLWX 032130
MTRNAK
SPECI KNAK 032129Z AUTO 15004KT 1/4SM -RA FG BKN008 OVC090 09/09
A2989 RMK AO2 P0003 T00890089





000
SAUS41 KLWX 032116
MTRNAK
SPECI KNAK 032115Z AUTO 12008KT 1/4SM -RA FG BKN080 OVC090 08/08
A2988 RMK AO2 P0002 T00780078





000
SAUS41 KLWX 032116 COR
MTRRYT
SPECI KRYT 032108Z AUTO 29007KT 240V320 3SM BR FEW007 BKN110 09/08
A2977 RMK AO2 $





000
SAUS41 KLWX 032108
MTRRYT
SPECI KRYT 032101Z AUTO 13004KT 1 3/4SM BR FEW007 SCT013 BKN110
07/07 A2976 RMK AO2 $





000
SAUS41 KLWX 032106
MTRNAK
SPECI KNAK 032105Z AUTO 14005KT 1 1/4SM -RA BR SCT075 OVC090 09/09
A2990 RMK AO2 P0000 T00890089





000
SAUS41 KLWX 032104 COR
MTRRSP
METAR KRSP 032054Z AUTO 10SM BKN100 OVC120 10/08 RMK AO2 SLPNO 60003
T01000078 $





000
SAUS41 KLWX 032058
MTRDMH
METAR KDMH 032054Z AUTO 08/08 A2990 RMK AO1 SLP126 P0002 60036
T00830078 56017





000
SAUS41 KLWX 032055 COR
MTRRYT
METAR KRYT 032053Z AUTO 00000KT 8SM FEW005 BKN110 09/08 A2976 RMK
AO2 SLP083 60003 T00940083 56036 $





000
SAUS41 KLWX 032054 COR
MTRRYT
METAR KRYT 032053Z AUTO 00000KT 8SM FEW005 BKN110 09/08 A2976 RMK
AO2 SLP083 60003 T00940083 56036 $





000
SAUS41 KLWX 032051
MTRNAK
METAR KNAK 032051Z AUTO 09003KT 1/4SM -RA FG FEW070 OVC100 08/08
A2990 RMK AO2 SLP126 P0003 60035 T00780078 58005





000
SAUS41 KLWX 032046 COR
MTRRYT
SPECI KRYT 032038Z AUTO 00000KT 10SM SCT007 SCT011 OVC110 08/08
A2975 RMK AO2 $





000
SAUS41 KLWX 032046 COR
MTRRYT
SPECI KRYT 032038Z AUTO 00000KT 10SM SCT007 SCT011 OVC110 08/08
A2975 RMK AO2 $





000
SAUS41 KLWX 032044
MTRNAK
SPECI KNAK 032043Z AUTO 00000KT 1 3/4SM -RA BR FEW075 OVC095 09/09
A2991 RMK AO2 VIS 1/2V4 P0002 T00890089





000
SAUS41 KLWX 032040
MTRNAK
SPECI KNAK 032039Z AUTO 00000KT 3SM -RA BR OVC090 09/08 A2991 RMK
AO2 P0002 T00890083





000
SAUS41 KLWX 032027
MTRNAK
SPECI KNAK 032025Z AUTO 12007KT 2SM -RA BR OVC090 07/07 A2990 RMK
AO2 VIS 1 1/4V3 P0002 T00720072





000
SAUS41 KLWX 032021 COR
MTRRSP
SPECI KRSP 032012Z AUTO 10SM FEW002 OVC100 10/09 RMK AO2 $





000
SAUS41 KLWX 032014
MTRRYT
SPECI KRYT 032013Z AUTO VRB03KT 7SM BKN007 BKN011 OVC110 08/07 A2978
RMK AO2 $





000
SAUS41 KLWX 032004 COR
MTRRSP
METAR KRSP 031954Z AUTO 10SM FEW060 OVC100 11/09 RMK AO2 RAE04 SLPNO
P0000 T01110089 $





000
SAUS41 KLWX 032000
MTRRYT
SPECI KRYT 031959Z AUTO VRB03KT 3SM BR SCT004 BKN010 OVC110 09/08
A2977 RMK AO2 $





000
SAUS41 KLWX 031958
MTRDMH
METAR KDMH 031954Z AUTO 08/07 A2992 RMK AO1 SLP131 P0006 T00830072





000
SAUS41 KLWX 031956
MTRNAK
METAR KNAK 031954Z AUTO 14004KT 4SM -RA BR OVC080 08/08 A2990 RMK
AO2 SLP128 P0016 T00830078





000
SAUS41 KLWX 031946
MTRNAK
SPECI KNAK 031944Z AUTO 13008KT 2 1/2SM -RA BR FEW060 OVC075 07/06
A2990 RMK AO2 P0014 T00670061





000
SAUS41 KLWX 031945 COR
MTRRYT
SPECI KRYT 031937Z AUTO 00000KT 1/4SM -RA FG SCT009 BKN070 OVC110
07/06 A2978 RMK AO2 P0000 $





000
SAUS41 KLWX 031945 COR
MTRRYT
SPECI KRYT 031937Z AUTO 00000KT 1/4SM -RA FG SCT009 BKN070 OVC110
07/06 A2978 RMK AO2 P0000 $





000
SAUS41 KLWX 031944
MTRRYT
SPECI KRYT 031937Z AUTO 00000KT 1/4SM -RA FG SCT009 BKN070 OVC110
07/06 A2978 RMK AO2 P0000 $





000
SAUS41 KLWX 031944
MTRRYT
SPECI KRYT 031937Z AUTO 00000KT 1/4SM -RA FG SCT009 BKN070 OVC110
07/06 A2978 RMK AO2 P0000 $





000
SAUS41 KLWX 031925 COR
MTRRYT
SPECI KRYT 031923Z AUTO 00000KT 2 1/2SM -RA BR FEW009 BKN070 OVC100
07/06 A2981 RMK AO2 P0000 $





000
SAUS41 KLWX 031925 COR
MTRRYT
SPECI KRYT 031923Z AUTO 00000KT 2 1/2SM -RA BR FEW009 BKN070 OVC100
07/06 A2981 RMK AO2 P0000 $





000
SAUS41 KLWX 031924
MTRRYT
SPECI KRYT 031923Z AUTO 00000KT 2 1/2SM -RA BR FEW009 BKN070 OVC100
07/06 A2981 RMK AO2 P0000 $





000
SAUS41 KLWX 031917
MTRRYT
SPECI KRYT 031910Z AUTO 00000KT 1 1/4SM -RA BR FEW009 BKN065 OVC100
07/06 A2981 RMK AO2 P0000 $





000
SAUS41 KLWX 031917
MTRRYT
SPECI KRYT 031910Z AUTO 00000KT 1 1/4SM -RA BR FEW009 BKN065 OVC100
07/06 A2981 RMK AO2 P0000 $





000
SAUS41 KLWX 031913
MTRNAK
SPECI KNAK 031912Z AUTO 00000KT 1SM +RA BR FEW022 SCT029 OVC035
07/07 A2993 RMK AO2 P0007 T00720072





000
SAUS41 KLWX 031905
MTRRYT
SPECI KRYT 031858Z AUTO VRB04KT 3SM -RA BR FEW009 BKN014 OVC095
07/07 A2981 RMK AO2 P0000 $





000
SAUS41 KLWX 031904 COR
MTRRSP
SPECI KRSP 031858Z AUTO 10SM -RA SCT003 BKN034 OVC090 11/10 RMK AO2
P0000 $





000
SAUS41 KLWX 031904 COR
MTRRSP
SPECI KRSP 031858Z AUTO 10SM -RA SCT003 BKN034 OVC090 11/10 RMK AO2
P0000 $





000
SAUS41 KLWX 031904
MTRNAK
SPECI KNAK 031903Z AUTO 34006KT 2SM -RA BR FEW009 BKN030 OVC035
07/07 A2994 RMK AO2 P0001 T00670067





000
SAUS41 KLWX 031904
MTRNAK
SPECI KNAK 031903Z AUTO 34006KT 2SM -RA BR FEW009 BKN030 OVC035
07/07 A2994 RMK AO2 P0001 T00670067





000
SAUS41 KLWX 031902
MTRNAK
SPECI KNAK 031901Z AUTO 34006KT 1 1/2SM -RA BR SCT009 SCT022 OVC030
07/07 A2994 RMK AO2 P0001 T00720067





000
SAUS41 KLWX 031902
MTRNAK
SPECI KNAK 031901Z AUTO 34006KT 1 1/2SM -RA BR SCT009 SCT022 OVC030
07/07 A2994 RMK AO2 P0001 T00720067





000
SAUS41 KLWX 031858
MTRDMH
METAR KDMH 031854Z AUTO 08/07 A2992 RMK AO1 SLP132 P0028 T00780072





000
SAUS41 KLWX 031858
MTRDMH
METAR KDMH 031854Z AUTO 08/07 A2992 RMK AO1 SLP132 P0028 T00780072





000
SAUS41 KLWX 031857 COR
MTRNAK
METAR KNAK 031854Z AUTO 31006KT 1 1/4SM RA BR BKN009 BKN021 OVC028
08/07 A2995 RMK AO2 WSHFT 1819 RAB12 CIG 008V013 SLP145 P0016
T00780072





000
SAUS41 KLWX 031857 COR
MTRNAK
METAR KNAK 031854Z AUTO 31006KT 1 1/4SM RA BR BKN009 BKN021 OVC028
08/07 A2995 RMK AO2 WSHFT 1819 RAB12 CIG 008V013 SLP145 P0016
T00780072





000
SAUS41 KLWX 031856 COR
MTRNAK
METAR KNAK 031854Z AUTO 31006KT 1 1/4SM RA BR BKN009 BKN021 OVC028
08/07 A2995 RMK AO2 WSHFT 1819 RAB12 CIG 008V013 SLP145 P0016
T00780072





000
SAUS41 KLWX 031851 COR
MTRRYT
SPECI KRYT 031843Z AUTO 00000KT M1/4SM FG BKN006 OVC090 05/04 A2984
RMK AO2 RAE43 PRESRR P0003 $





000
SAUS41 KLWX 031851 COR
MTRRYT
SPECI KRYT 031843Z AUTO 00000KT M1/4SM FG BKN006 OVC090 05/04 A2984
RMK AO2 RAE43 PRESRR P0003 $





000
SAUS41 KLWX 031850
MTRRYT
SPECI KRYT 031843Z AUTO 00000KT M1/4SM FG BKN006 OVC090 05/04 A2984
RMK AO2 RAE43 PRESRR P0003 $





000
SAUS41 KLWX 031849 COR
MTRRSP
SPECI KRSP 031842Z AUTO 2SM BR BKN003 OVC009 10/10 RMK AO2 RAE37
P0003 $





000
SAUS41 KLWX 031842 COR
MTRRYT
SPECI KRYT 031834Z AUTO 35004KT 1/4SM -RA FG BKN008 BKN070 OVC090
05/04 A2980 RMK AO2 P0003 $





000
SAUS41 KLWX 031841
MTRRYT
SPECI KRYT 031834Z AUTO 35004KT 1/4SM -RA FG BKN008 BKN070 OVC090
05/04 A2980 RMK AO2 P0003 $





000
SAUS41 KLWX 031840
MTRNAK
SPECI KNAK 031839Z AUTO 30014KT 1 1/4SM +RA BR OVC009 08/07 A2995
RMK AO2 WSHFT 1819 RAB12 CIG 006V011 PRESRR P0009 T00780072





000
SAUS41 KLWX 031836 COR
MTRRSP
SPECI KRSP 031830Z AUTO 1/2SM -RA FG SCT003 BKN013 OVC085 11/10 RMK
AO2 P0003 $





000
SAUS41 KLWX 031836 COR
MTRRSP
SPECI KRSP 031830Z AUTO 1/2SM -RA FG SCT003 BKN013 OVC085 11/10 RMK
AO2 P0003 $





000
SAUS41 KLWX 031832
MTRNAK
SPECI KNAK 031831Z AUTO 31014KT 2SM RA BR BKN008 OVC065 08/07 A2992
RMK AO2 RAB12 P0004 T00780072





000
SAUS41 KLWX 031832
MTRNAK
SPECI KNAK 031831Z AUTO 31014KT 2SM RA BR BKN008 OVC065 08/07 A2992
RMK AO2 RAB12 P0004 T00780072





000
SAUS41 KLWX 031824 COR
MTRRYT
SPECI KRYT 031822Z AUTO 00000KT 1/4SM -RA FG FEW047 SCT070 OVC090
06/05 A2982 RMK AO2 P0003 $





000
SAUS41 KLWX 031824 COR
MTRRYT
SPECI KRYT 031822Z AUTO 00000KT 1/4SM -RA FG FEW047 SCT070 OVC090
06/05 A2982 RMK AO2 P0003 $





000
SAUS41 KLWX 031823 COR
MTRRYT
SPECI KRYT 031822Z AUTO 00000KT 1/4SM -RA FG FEW047 SCT070 OVC090
06/05 A2982 RMK AO2 P0003 $





000
SAUS41 KLWX 031823 COR
MTRRYT
SPECI KRYT 031822Z AUTO 00000KT 1/4SM -RA FG FEW047 SCT070 OVC090
06/05 A2982 RMK AO2 P0003 $





000
SAUS41 KLWX 031822
MTRRYT
SPECI KRYT 031822Z AUTO 00000KT 1/4SM -RA FG FEW047 SCT070 OVC090
06/05 A2982 RMK AO2 P0003 $





000
SAUS41 KLWX 031808 COR
MTRRSP
SPECI KRSP 031801Z AUTO 7SM -RA SCT070 OVC090 10/09 RMK AO2 P0001 $





000
SAUS41 KLWX 031808
MTRRYT
SPECI KRYT 031807Z AUTO 00000KT 3/4SM -RA BR FEW005 BKN070 OVC090
05/04 A2984 RMK AO2 P0002 $





000
SAUS41 KLWX 031801 COR
MTRRYT
SPECI KRYT 031759Z AUTO 00000KT 1/2SM -RA FG FEW007 SCT020 OVC090
06/05 A2986 RMK AO2 PRESFR P0001 $





000
SAUS41 KLWX 031801 COR
MTRRYT
SPECI KRYT 031759Z AUTO 00000KT 1/2SM -RA FG FEW007 SCT020 OVC090
06/05 A2986 RMK AO2 PRESFR P0001 $





000
SAUS41 KLWX 031800
MTRRYT
SPECI KRYT 031759Z AUTO 00000KT 1/2SM -RA FG FEW007 SCT020 OVC090
06/05 A2986 RMK AO2 PRESFR P0001 $





000
SAUS41 KLWX 031800
MTRRYT
SPECI KRYT 031759Z AUTO 00000KT 1/2SM -RA FG FEW007 SCT020 OVC090
06/05 A2986 RMK AO2 PRESFR P0001 $





000
SAUS41 KLWX 031758
MTRDMH
METAR KDMH 031754Z AUTO 08/07 A2995 RMK AO1 SLP142 P0002 60007
T00830072 10083 20050 56026





000
SAUS41 KLWX 031758
MTRDMH
METAR KDMH 031754Z AUTO 08/07 A2995 RMK AO1 SLP142 P0002 60007
T00830072 10083 20050 56026





000
SAUS41 KLWX 031756
MTRNAK
METAR KNAK 031754Z AUTO 18011KT 5SM BR BKN007 OVC070 11/10 A2991 RMK
AO2 SLP131 60002 T01060100 10111 20050 58038





000
SAUS41 KLWX 031744
MTRRYT
SPECI KRYT 031737Z AUTO 00000KT 1/4SM -RA FG BKN007 BKN017 OVC075
06/06 A2988 RMK AO2 P0006 $





000
SAUS41 KLWX 031737
MTRRYT
SPECI KRYT 031730Z AUTO 00000KT 1 1/4SM -RA BR BKN007 OVC017 06/06
A2989 RMK AO2 VIS 1/4V5 P0005 $





000
SAUS41 KLWX 031732 COR
MTRRSP
SPECI KRSP 031722Z AUTO 5SM -RA BR FEW003 SCT070 OVC080 08/07 RMK
AO2 P0005 $





000
SAUS41 KLWX 031720
MTRNAK
SPECI KNAK 031719Z AUTO 16007KT 7SM BKN007 BKN021 OVC100 11/10 A2993
RMK AO2 PRESFR T01060100





000
SAUS41 KLWX 031720
MTRNAK
SPECI KNAK 031719Z AUTO 16007KT 7SM BKN007 BKN021 OVC100 11/10 A2993
RMK AO2 PRESFR T01060100





000
SAUS41 KLWX 031717 COR
MTRRYT
SPECI KRYT 031715Z AUTO 00000KT 5SM -RA BR BKN007 BKN055 OVC070
07/06 A2989 RMK AO2 P0004 $





000
SAUS41 KLWX 031711 COR
MTRRSP
SPECI KRSP 031704Z AUTO 3SM -RA BR SCT032 BKN070 OVC085 08/07 RMK
AO2 P0003 $





000
SAUS41 KLWX 031702 COR
MTRRSP
METAR KRSP 031653Z AUTO 1SM +RA BR BKN032 OVC050 08/07 A2998 RMK AO2
PRESRR SLP167 P0045 T00780067 $





000
SAUS41 KLWX 031702 COR
MTRRSP
METAR KRSP 031653Z AUTO 1SM +RA BR BKN032 OVC050 08/07 A2998 RMK AO2
PRESRR SLP167 P0045 T00780067 $





000
SAUS41 KLWX 031701
MTRRYT
SPECI KRYT 031701Z AUTO 00000KT 3SM RA BR FEW007 BKN046 OVC065 07/06
A2990 RMK AO2 P0002 $





000
SAUS41 KLWX 031701
MTRRYT
SPECI KRYT 031701Z AUTO 00000KT 3SM RA BR FEW007 BKN046 OVC065 07/06
A2990 RMK AO2 P0002 $





000
SAUS41 KLWX 031700
MTRRYT
METAR KRYT 031653Z AUTO 23007KT 1 1/4SM +RA BR FEW007 BKN043 OVC060
07/06 A2991 RMK AO2 SLP134 P0045 T00720056 $





000
SAUS41 KLWX 031700
MTRRYT
METAR KRYT 031653Z AUTO 23007KT 1 1/4SM +RA BR FEW007 BKN043 OVC060
07/06 A2991 RMK AO2 SLP134 P0045 T00720056 $





000
SAUS41 KLWX 031700
MTRDMH
METAR KDMH 031654Z AUTO 08/06 A2996 RMK AO1 SLP144 T00780061





000
SAUS41 KLWX 031700
MTRDMH
METAR KDMH 031654Z AUTO 08/06 A2996 RMK AO1 SLP144 T00780061





000
SAUS41 KLWX 031656
MTRNAK
METAR KNAK 031654Z AUTO 17010KT 7SM FEW007 OVC017 10/09 A2995 RMK
AO2 RAB1559E16 PRESFR SLP144 P0000 T01000094





000
SAUS41 KLWX 031649 COR
MTRRYT
SPECI KRYT 031641Z AUTO VRB04KT 1 1/4SM +RA BR BKN031 BKN038 OVC055
07/06 A2992 RMK AO2 PRESFR P0033 $





000
SAUS41 KLWX 031649 COR
MTRRYT
SPECI KRYT 031641Z AUTO VRB04KT 1 1/4SM +RA BR BKN031 BKN038 OVC055
07/06 A2992 RMK AO2 PRESFR P0033 $





000
SAUS41 KLWX 031648 COR
MTRRYT
SPECI KRYT 031641Z AUTO VRB04KT 1 1/4SM +RA BR BKN031 BKN038 OVC055
07/06 A2992 RMK AO2 PRESFR P0033 $





000
SAUS41 KLWX 031635 COR
MTRRSP
SPECI KRSP 031625Z AUTO 3/4SM +RA BR SCT002 SCT009 OVC018 06/04
A2996 RMK AO2 P0018 $





000
SAUS41 KLWX 031635 COR
MTRRSP
SPECI KRSP 031625Z AUTO 3/4SM +RA BR SCT002 SCT009 OVC018 06/04
A2996 RMK AO2 P0018 $





000
SAUS41 KLWX 031633 COR
MTRRYT
SPECI KRYT 031625Z AUTO VRB06KT 1 1/4SM RA BR FEW009 BKN028 OVC032
07/06 A2996 RMK AO2 P0019 $





000
SAUS41 KLWX 031633 COR
MTRRYT
SPECI KRYT 031625Z AUTO VRB06KT 1 1/4SM RA BR FEW009 BKN028 OVC032
07/06 A2996 RMK AO2 P0019 $





000
SAUS41 KLWX 031632 COR
MTRRYT
SPECI KRYT 031625Z AUTO VRB06KT 1 1/4SM RA BR FEW009 BKN028 OVC032
07/06 A2996 RMK AO2 P0019 $





000
SAUS41 KLWX 031632 COR
MTRRYT
SPECI KRYT 031625Z AUTO VRB06KT 1 1/4SM RA BR FEW009 BKN028 OVC032
07/06 A2996 RMK AO2 P0019 $





000
SAUS41 KLWX 031610 COR
MTRRYT
SPECI KRYT 031601Z AUTO 00000KT 1SM RA BR SCT004 OVC010 04/03 A2996
RMK AO2 P0004 $





000
SAUS41 KLWX 031609 COR
MTRRYT
SPECI KRYT 031601Z AUTO 00000KT 1SM RA BR SCT004 OVC010 04/03 A2996
RMK AO2 P0004 $





000
SAUS41 KLWX 031604 COR
MTRRSP
METAR KRSP 031554Z AUTO 1/4SM -RA FG VV002 06/06 A2996 RMK AO2
SLP162 P0014 T00610056 $





000
SAUS41 KLWX 031601 COR
MTRRYT
METAR KRYT 031553Z AUTO 00000KT 3/4SM +RA BR BKN004 OVC008 04/04
A2996 RMK AO2 SLP154 P0018 T00440039 $





000
SAUS41 KLWX 031600
MTRRYT
METAR KRYT 031553Z AUTO 00000KT 3/4SM +RA BR BKN004 OVC008 04/04
A2996 RMK AO2 SLP154 P0018 T00440039 $





000
SAUS41 KLWX 031558
MTRDMH
METAR KDMH 031554Z AUTO 07/06 A3000 RMK AO1 SLP158 P0004 T00670056





000
SAUS41 KLWX 031558
MTRDMH
METAR KDMH 031554Z AUTO 07/06 A3000 RMK AO1 SLP158 P0004 T00670056





000
SAUS41 KLWX 031556
MTRNAK
METAR KNAK 031554Z AUTO 17011KT 7SM FEW007 OVC018 09/09 A3000 RMK
AO2 RAB1459E23 SLP159 P0002 T00940089





000
SAUS41 KLWX 031552 COR
MTRRYT
SPECI KRYT 031551Z AUTO 00000KT 3/4SM RA BR BKN004 OVC008 04/04
A2995 RMK AO2 P0016 $





000
SAUS41 KLWX 031552
MTRRYT
SPECI KRYT 031551Z AUTO 00000KT 3/4SM RA BR BKN004 OVC008 04/04
A2995 RMK AO2 P0016 $





000
SAUS41 KLWX 031531
MTRRYT
SPECI KRYT 031524Z AUTO 00000KT 2 1/2SM RA BR OVC008 04/04 A2996 RMK
AO2 P0006 $





000
SAUS41 KLWX 031531
MTRRYT
SPECI KRYT 031524Z AUTO 00000KT 2 1/2SM RA BR OVC008 04/04 A2996 RMK
AO2 P0006 $





000
SAUS41 KLWX 031516
MTRNAK
SPECI KNAK 031515Z AUTO 18011KT 4SM -RA BR SCT008 BKN022 OVC055
09/08 A3002 RMK AO2 RAB1459 P0002 T00890083





000
SAUS41 KLWX 031508
MTRNAK
SPECI KNAK 031507Z AUTO 18013G19KT 2 1/2SM -RA BR SCT009 BKN019
OVC070 09/08 A3002 RMK AO2 RAB1459 P0002 T00890078





000
SAUS41 KLWX 031508
MTRNAK
SPECI KNAK 031507Z AUTO 18013G19KT 2 1/2SM -RA BR SCT009 BKN019
OVC070 09/08 A3002 RMK AO2 RAB1459 P0002 T00890078





000
SAUS41 KLWX 031504 COR
MTRRSP
METAR KRSP 031454Z AUTO 1/4SM -RA FG VV002 06/05 A3001 RMK AO2
PRESRR SLP177 P0011 60037 T00560050 55007 $





000
SAUS41 KLWX 031500
MTRRYT
METAR KRYT 031453Z AUTO VRB03KT 6SM -RA BR OVC010 06/04 A2996 RMK
AO2 SLP153 P0012 60034 T00560039 58023 $





000
SAUS41 KLWX 031458
MTRDMH
METAR KDMH 031454Z AUTO 07/05 A3003 RMK AO1 SLP168 P0001 60001
T00670050 56028





000
SAUS41 KLWX 031455
MTRNAK
METAR KNAK 031454Z AUTO 19011KT 10SM FEW009 BKN049 OVC065 09/08
A3002 RMK AO2 SLP169 T00940083 56028





000
SAUS41 KLWX 031437 COR
MTRRYT
SPECI KRYT 031429Z AUTO 00000KT 4SM RA BR OVC010 05/04 A2998 RMK AO2
CIG 008V013 P0008 $





000
SAUS41 KLWX 031437 COR
MTRRYT
SPECI KRYT 031429Z AUTO 00000KT 4SM RA BR OVC010 05/04 A2998 RMK AO2
CIG 008V013 P0008 $





000
SAUS41 KLWX 031437 COR
MTRRSP
SPECI KRSP 031427Z AUTO 3/4SM RA BR VV002 05/04 A2997 RMK AO2 P0007
$





000
SAUS41 KLWX 031437 COR
MTRRSP
SPECI KRSP 031427Z AUTO 3/4SM RA BR VV002 05/04 A2997 RMK AO2 P0007
$





000
SAUS41 KLWX 031436 COR
MTRRYT
SPECI KRYT 031429Z AUTO 00000KT 4SM RA BR OVC010 05/04 A2998 RMK AO2
CIG 008V013 P0008 $





000
SAUS41 KLWX 031436 COR
MTRRYT
SPECI KRYT 031429Z AUTO 00000KT 4SM RA BR OVC010 05/04 A2998 RMK AO2
CIG 008V013 P0008 $





000
SAUS41 KLWX 031436
MTRRYT
SPECI KRYT 031429Z AUTO 00000KT 4SM RA BR OVC010 05/04 A2998 RMK AO2
CIG 008V013 P0008 $





000
SAUS41 KLWX 031436
MTRRYT
SPECI KRYT 031429Z AUTO 00000KT 4SM RA BR OVC010 05/04 A2998 RMK AO2
CIG 008V013 P0008 $





000
SAUS41 KLWX 031420
MTRNAK
SPECI KNAK 031418Z AUTO 15010KT 10SM FEW026 SCT050 OVC065 08/07
A3003 RMK AO2 T00830067





000
SAUS41 KLWX 031417
MTRRYT
SPECI KRYT 031410Z AUTO 00000KT 3SM RA BR OVC008 04/03 A2999 RMK AO2
P0004 $





000
SAUS41 KLWX 031404 COR
MTRRSP
METAR KRSP 031354Z AUTO 1SM RA BR VV002 04/03 A2997 RMK AO2 RAB1255
SLP165 P0019 T00440033 $





000
SAUS41 KLWX 031401 COR
MTRRYT
METAR KRYT 031353Z AUTO 00000KT 2 1/2SM RA BR OVC008 04/03 A3000 RMK
AO2 CIG 004V011 SLP167 P0015 T00390033 $





000
SAUS41 KLWX 031400 COR
MTRRYT
METAR KRYT 031353Z AUTO 00000KT 2 1/2SM RA BR OVC008 04/03 A3000 RMK
AO2 CIG 004V011 SLP167 P0015 T00390033 $





000
SAUS41 KLWX 031358
MTRDMH
METAR KDMH 031354Z AUTO 06/04 A3005 RMK AO1 SLP174 T00610044





000
SAUS41 KLWX 031355
MTRNAK
METAR KNAK 031354Z AUTO 13007KT 10SM BKN027 OVC037 06/04 A3005 RMK
AO2 SLP176 T00560044





000
SAUS41 KLWX 031355
MTRNAK
METAR KNAK 031354Z AUTO 13007KT 10SM BKN027 OVC037 06/04 A3005 RMK
AO2 SLP176 T00560044





000
SAUS41 KLWX 031349
MTRRYT
SPECI KRYT 031343Z AUTO 00000KT 2 1/2SM RA BR OVC006 04/03 A3000 RMK
AO2 VIS 2 1/2V4 CIG 004V009 P0013 $





000
SAUS41 KLWX 031342
MTRRYT
SPECI KRYT 031335Z AUTO 00000KT 3SM RA BR OVC004 03/03 A3000 RMK AO2
P0011 $





000
SAUS41 KLWX 031330
MTRRYT
SPECI KRYT 031323Z AUTO 00000KT 2 1/2SM RA BR OVC004 03/03 A3001 RMK
AO2 P0006 $





000
SAUS41 KLWX 031330
MTRRYT
SPECI KRYT 031323Z AUTO 00000KT 2 1/2SM RA BR OVC004 03/03 A3001 RMK
AO2 P0006 $





000
SAUS41 KLWX 031315
MTRRYT
SPECI KRYT 031308Z AUTO 00000KT 4SM -RA BR OVC004 04/03 A3001 RMK
AO2 P0001 $





000
SAUS41 KLWX 031315
MTRRYT
SPECI KRYT 031308Z AUTO 00000KT 4SM -RA BR OVC004 04/03 A3001 RMK
AO2 P0001 $





000
SAUS41 KLWX 031304 COR
MTRRSP
METAR KRSP 031254Z AUTO 1/4SM FG VV001 03/03 A3001 RMK AO2 RAE49
SLP180 P0007 T00280028 $





000
SAUS41 KLWX 031301 COR
MTRRYT
METAR KRYT 031253Z AUTO 00000KT 8SM -RA OVC006 04/03 A3001 RMK AO2
SLP173 P0007 T00440033 $





000
SAUS41 KLWX 031301 COR
MTRRYT
METAR KRYT 031253Z AUTO 00000KT 8SM -RA OVC006 04/03 A3001 RMK AO2
SLP173 P0007 T00440033 $





000
SAUS41 KLWX 031300
MTRRYT
METAR KRYT 031253Z AUTO 00000KT 8SM -RA OVC006 04/03 A3001 RMK AO2
SLP173 P0007 T00440033 $





000
SAUS41 KLWX 031258
MTRDMH
METAR KDMH 031254Z AUTO 06/04 A3009 RMK AO1 SLP187 T00560039





000
SAUS41 KLWX 031258
MTRDMH
METAR KDMH 031254Z AUTO 06/04 A3009 RMK AO1 SLP187 T00560039





000
SAUS41 KLWX 031255
MTRNAK
METAR KNAK 031254Z AUTO 15003KT 10SM OVC025 06/05 A3008 RMK AO2
SLP188 T00610050





000
SAUS41 KLWX 031255
MTRNAK
METAR KNAK 031254Z AUTO 15003KT 10SM OVC025 06/05 A3008 RMK AO2
SLP188 T00610050





000
SAUS41 KLWX 031204 COR
MTRRSP
METAR KRSP 031154Z AUTO 1/4SM RA FG VV001 03/03 A3003 RMK AO2 RAB25
SLP186 P0007 60012 7//// T00330028 10033 20017 55018 $





000
SAUS41 KLWX 031204 COR
MTRRSP
METAR KRSP 031154Z AUTO 1/4SM RA FG VV001 03/03 A3003 RMK AO2 RAB25
SLP186 P0007 60012 7//// T00330028 10033 20017 55018 $





000
SAUS41 KLWX 031200
MTRRYT
METAR KRYT 031153Z AUTO 00000KT 4SM RA BR OVC006 04/03 A3003 RMK AO2
SLP178 P0004 60009 70009 T00440028 10050 20028 56015 $





000
SAUS41 KLWX 031200
MTRRYT
METAR KRYT 031153Z AUTO 00000KT 4SM RA BR OVC006 04/03 A3003 RMK AO2
SLP178 P0004 60009 70009 T00440028 10050 20028 56015 $





000
SAUS41 KLWX 031158
MTRDMH
METAR KDMH 031154Z AUTO 05/03 A3011 RMK AO1 SLP196 60001 70001
T00500033 10056 20044 56027





000
SAUS41 KLWX 031158
MTRDMH
METAR KDMH 031154Z AUTO 05/03 A3011 RMK AO1 SLP196 60001 70001
T00500033 10056 20044 56027





000
SAUS41 KLWX 031155
MTRNAK
METAR KNAK 031154Z AUTO 32003KT 10SM FEW022 BKN027 OVC035 06/04
A3011 RMK AO2 SLP196 T00560039 10061 20044 58014





000
SAUS41 KLWX 031155
MTRNAK
METAR KNAK 031154Z AUTO 32003KT 10SM FEW022 BKN027 OVC035 06/04
A3011 RMK AO2 SLP196 T00560039 10061 20044 58014





000
SAUS41 KLWX 031150 COR
MTRRYT
SPECI KRYT 031149Z AUTO 00000KT 3SM RA BR OVC006 04/03 A3003 RMK AO2
P0003 $





000
SAUS41 KLWX 031150 COR
MTRRYT
SPECI KRYT 031149Z AUTO 00000KT 3SM RA BR OVC006 04/03 A3003 RMK AO2
P0003 $





000
SAUS41 KLWX 031150
MTRRYT
SPECI KRYT 031149Z AUTO 00000KT 3SM RA BR OVC006 04/03 A3003 RMK AO2
P0003 $





000
SAUS41 KLWX 031150
MTRRYT
SPECI KRYT 031149Z AUTO 00000KT 3SM RA BR OVC006 04/03 A3003 RMK AO2
P0003 $





000
SAUS41 KLWX 031149
MTRRYT
SPECI KRYT 031142Z AUTO 00000KT 2 1/2SM RA BR OVC006 03/03 A3003 RMK
AO2 P0002 $





000
SAUS41 KLWX 031108
MTRRYT
SPECI KRYT 031107Z AUTO 00000KT 4SM -RA BR OVC006 03/02 A3005 RMK
AO2 P0000 $





000
SAUS41 KLWX 031108
MTRRYT
SPECI KRYT 031107Z AUTO 00000KT 4SM -RA BR OVC006 03/02 A3005 RMK
AO2 P0000 $





000
SAUS41 KLWX 031104 COR
MTRRSP
METAR KRSP 031054Z AUTO 1/4SM FG VV001 03/02 A3000 RMK AO2 RAE30
SLP178 P0000 T00280017 $





000
SAUS41 KLWX 031104 COR
MTRRSP
METAR KRSP 031054Z AUTO 1/4SM FG VV001 03/02 A3000 RMK AO2 RAE30
SLP178 P0000 T00280017 $





000
SAUS41 KLWX 031101 COR
MTRRYT
METAR KRYT 031053Z AUTO 00000KT 10SM -RA OVC008 03/02 A3006 RMK AO2
SLP191 P0001 T00330017 $





000
SAUS41 KLWX 031058
MTRDMH
METAR KDMH 031054Z AUTO 05/03 A3012 RMK AO1 SLP199 T00500028





000
SAUS41 KLWX 031058
MTRDMH
METAR KDMH 031054Z AUTO 05/03 A3012 RMK AO1 SLP199 T00500028





000
SAUS41 KLWX 031056
MTRNAK
METAR KNAK 031054Z AUTO 00000KT 10SM OVC026 06/03 A3012 RMK AO2
SLP200 T00560033





000
SAUS41 KLWX 031056
MTRNAK
METAR KNAK 031054Z AUTO 00000KT 10SM OVC026 06/03 A3012 RMK AO2
SLP200 T00560033





000
SAUS41 KLWX 031011 COR
MTRRYT
SPECI KRYT 031003Z AUTO 00000KT 5SM -RA BR OVC008 03/02 A3007 RMK
AO2 CIG 006V011 P0000 $





000
SAUS41 KLWX 031010
MTRRYT
SPECI KRYT 031003Z AUTO 00000KT 5SM -RA BR OVC008 03/02 A3007 RMK
AO2 CIG 006V011 P0000 $





000
SAUS41 KLWX 031004 COR
MTRRSP
METAR KRSP 030954Z AUTO 1/4SM -RA FG VV001 02/01 A3003 RMK AO2
SLP187 P0005 T00170006 $





000
SAUS41 KLWX 031004 COR
MTRRSP
METAR KRSP 030954Z AUTO 1/4SM -RA FG VV001 02/01 A3003 RMK AO2
SLP187 P0005 T00170006 $





000
SAUS41 KLWX 031001 COR
MTRRYT
METAR KRYT 030953Z AUTO 00000KT 7SM -RA OVC010 03/02 A3007 RMK AO2
CIG 008V012 SLP193 P0004 T00280017 $





000
SAUS41 KLWX 031001 COR
MTRRYT
METAR KRYT 030953Z AUTO 00000KT 7SM -RA OVC010 03/02 A3007 RMK AO2
CIG 008V012 SLP193 P0004 T00280017 $





000
SAUS41 KLWX 031000 COR
MTRRYT
METAR KRYT 030953Z AUTO 00000KT 7SM -RA OVC010 03/02 A3007 RMK AO2
CIG 008V012 SLP193 P0004 T00280017 $





000
SAUS41 KLWX 031000 COR
MTRRYT
METAR KRYT 030953Z AUTO 00000KT 7SM -RA OVC010 03/02 A3007 RMK AO2
CIG 008V012 SLP193 P0004 T00280017 $





000
SAUS41 KLWX 031000
MTRRYT
METAR KRYT 030953Z AUTO 00000KT 7SM -RA OVC010 03/02 A3007 RMK AO2
CIG 008V012 SLP193 P0004 T00280017 $





000
SAUS41 KLWX 030957
MTRDMH
METAR KDMH 030954Z AUTO 05/02 A3016 RMK AO1 PRESFR SLP211 P0001
T00500022





000
SAUS41 KLWX 030955
MTRNAK
METAR KNAK 030954Z AUTO 00000KT 10SM BKN029 OVC039 06/03 A3014 RMK
AO2 SLP209 T00560028





000
SAUS41 KLWX 030954 COR
MTRRSP
SPECI KRSP 030944Z AUTO 1/4SM -RA FG VV001 02/01 A3004 RMK AO2 P0005
$





000
SAUS41 KLWX 030945 COR
MTRRSP
SPECI KRSP 030935Z AUTO 1 1/2SM -RA BR OVC002 02/01 A3005 RMK AO2
PRESFR P0004 $





000
SAUS41 KLWX 030926 COR
MTRRSP
SPECI KRSP 030916Z AUTO 4SM -RA BR OVC004 02/01 A3007 RMK AO2 P0004
$





000
SAUS41 KLWX 030926 COR
MTRRSP
SPECI KRSP 030916Z AUTO 4SM -RA BR OVC004 02/01 A3007 RMK AO2 P0004
$





000
SAUS41 KLWX 030913
MTRRYT
SPECI KRYT 030906Z AUTO 02003KT 5SM RA OVC014 03/01 A3011 RMK AO2
P0002 $





000
SAUS41 KLWX 030904 COR
MTRRSP
METAR KRSP 030854Z AUTO 7SM -RA OVC006 02/01 A3009 RMK AO2
UPB46E50RAB50 SLP207 P0000 60000 T00220006 58019 $





000
SAUS41 KLWX 030904 COR
MTRRSP
METAR KRSP 030854Z AUTO 7SM -RA OVC006 02/01 A3009 RMK AO2
UPB46E50RAB50 SLP207 P0000 60000 T00220006 58019 $





000
SAUS41 KLWX 030901 COR
MTRRYT
METAR KRYT 030853Z AUTO VRB03KT 10SM -RA OVC016 04/01 A3011 RMK AO2
RAB43 SLP207 P0000 60000 T00390006 58021 $





000
SAUS41 KLWX 030900 COR
MTRRYT
METAR KRYT 030853Z AUTO VRB03KT 10SM -RA OVC016 04/01 A3011 RMK AO2
RAB43 SLP207 P0000 60000 T00390006 58021 $





000
SAUS41 KLWX 030859
MTRRYT
METAR KRYT 030853Z AUTO VRB03KT 10SM -RA OVC016 04/01 A3011 RMK AO2
RAB43 SLP207 P0000 60000 T00390006 58021 $





000
SAUS41 KLWX 030859
MTRRYT
METAR KRYT 030853Z AUTO VRB03KT 10SM -RA OVC016 04/01 A3011 RMK AO2
RAB43 SLP207 P0000 60000 T00390006 58021 $





000
SAUS41 KLWX 030858
MTRDMH
METAR KDMH 030854Z AUTO 06/01 A3019 RMK AO1 SLP224 T00560011 58022





000
SAUS41 KLWX 030855
MTRNAK
METAR KNAK 030854Z AUTO 00000KT 10SM OVC046 06/03 A3018 RMK AO2
SLP222 T00560028 56022





000
SAUS41 KLWX 030804 COR
MTRRSP
METAR KRSP 030754Z AUTO 10SM OVC006 02/M01 A3011 RMK AO2 SLP215
T00221011 $





000
SAUS41 KLWX 030800
MTRRYT
METAR KRYT 030753Z AUTO 00000KT 10SM OVC016 04/00 A3014 RMK AO2
SLP215 T00440000 $





000
SAUS41 KLWX 030758
MTRDMH
METAR KDMH 030754Z AUTO 06/01 A3022 RMK AO1 SLP233 T00560011





000
SAUS41 KLWX 030755
MTRNAK
METAR KNAK 030754Z AUTO 00000KT 10SM OVC050 05/03 A3020 RMK AO2
SLP228 T00500028





000
SAUS41 KLWX 030711
MTRRYT
SPECI KRYT 030704Z AUTO VRB03KT 10SM BKN018 OVC036 04/M01 A3015 RMK
AO2 $





000
SAUS41 KLWX 030711
MTRRYT
SPECI KRYT 030704Z AUTO VRB03KT 10SM BKN018 OVC036 04/M01 A3015 RMK
AO2 $





000
SAUS41 KLWX 030703 COR
MTRRSP
METAR KRSP 030654Z AUTO 10SM BKN008 OVC028 03/M02 A3013 RMK AO2
SLP221 T00281017 $





000
SAUS41 KLWX 030701 COR
MTRRYT
METAR KRYT 030653Z AUTO VRB04KT 10SM FEW018 OVC036 04/M02 A3016 RMK
AO2 SLP222 T00441017 $





000
SAUS41 KLWX 030658
MTRDMH
METAR KDMH 030654Z AUTO 06/01 A3024 RMK AO1 SLP240 T00560011





000
SAUS41 KLWX 030658
MTRDMH
METAR KDMH 030654Z AUTO 06/01 A3024 RMK AO1 SLP240 T00560011





000
SAUS41 KLWX 030655
MTRNAK
METAR KNAK 030654Z AUTO 00000KT 10SM OVC050 05/03 A3022 RMK AO2
SLP234 T00500028





000
SAUS41 KLWX 030655
MTRNAK
METAR KNAK 030654Z AUTO 00000KT 10SM OVC050 05/03 A3022 RMK AO2
SLP234 T00500028





000
SAUS41 KLWX 030604 COR
MTRRSP
METAR KRSP 030554Z AUTO 10SM OVC028 03/M03 A3015 RMK AO2 SLP225
T00331033 10039 20028 56003 $





000
SAUS41 KLWX 030604 COR
MTRRSP
METAR KRSP 030554Z AUTO 10SM OVC028 03/M03 A3015 RMK AO2 SLP225
T00331033 10039 20028 56003 $





000
SAUS41 KLWX 030601 COR
MTRRYT
METAR KRYT 030553Z AUTO 00000KT 10SM OVC038 05/M02 A3018 RMK AO2
SLP227 T00501022 10061 20044 56014 $





000
SAUS41 KLWX 030601 COR
MTRRYT
METAR KRYT 030553Z AUTO 00000KT 10SM OVC038 05/M02 A3018 RMK AO2
SLP227 T00501022 10061 20044 56014 $





000
SAUS41 KLWX 030600 COR
MTRRYT
METAR KRYT 030553Z AUTO 00000KT 10SM OVC038 05/M02 A3018 RMK AO2
SLP227 T00501022 10061 20044 56014 $





000
SAUS41 KLWX 030600 COR
MTRRYT
METAR KRYT 030553Z AUTO 00000KT 10SM OVC038 05/M02 A3018 RMK AO2
SLP227 T00501022 10061 20044 56014 $





000
SAUS41 KLWX 030558
MTRDMH
METAR KDMH 030554Z AUTO 05/01 A3026 RMK AO1 SLP246 T00500006 10072
20050 56023





000
SAUS41 KLWX 030558
MTRDMH
METAR KDMH 030554Z AUTO 05/01 A3026 RMK AO1 SLP246 T00500006 10072
20050 56023





000
SAUS41 KLWX 030555
MTRNAK
METAR KNAK 030554Z AUTO 00000KT 10SM OVC050 05/02 A3025 RMK AO2
SLP244 T00500022 10056 20033 56023





000
SAUS41 KLWX 030504 COR
MTRRSP
METAR KRSP 030454Z AUTO 10SM OVC028 03/M02 A3016 RMK AO2 SLPNO
T00281022 400560006 $





000
SAUS41 KLWX 030501 COR
MTRRYT
METAR KRYT 030453Z AUTO VRB03KT 10SM OVC036 05/M02 A3019 RMK AO2
SLP233 T00501017 400721028 $





000
SAUS41 KLWX 030500
MTRRYT
METAR KRYT 030453Z AUTO VRB03KT 10SM OVC036 05/M02 A3019 RMK AO2
SLP233 T00501017 400721028 $





000
SAUS41 KLWX 030458
MTRDMH
METAR KDMH 030454Z AUTO 05/M01 A3028 RMK AO1 SLP254 T00501006
401000044





000
SAUS41 KLWX 030455
MTRNAK
METAR KNAK 030454Z AUTO 14005KT 10SM FEW047 OVC055 05/02 A3026 RMK
AO2 SLP249 T00500017 400940022





000
SAUS41 KLWX 030426 COR
MTRRSP
SPECI KRSP 030417Z AUTO 10SM BKN028 OVC044 03/M02 A3013 RMK AO2 $





000
SAUS41 KLWX 030403 COR
MTRRSP
METAR KRSP 030354Z AUTO 10SM FEW025 OVC042 03/M02 A3011 RMK AO2
SLP216 T00281022 $





000
SAUS41 KLWX 030403 COR
MTRRSP
METAR KRSP 030354Z AUTO 10SM FEW025 OVC042 03/M02 A3011 RMK AO2
SLP216 T00281022 $





000
SAUS41 KLWX 030401 COR
MTRRYT
METAR KRYT 030353Z AUTO 00000KT 10SM BKN038 OVC048 05/M02 A3019 RMK
AO2 SLP234 T00501022 $





000
SAUS41 KLWX 030400
MTRRYT
METAR KRYT 030353Z AUTO 00000KT 10SM BKN038 OVC048 05/M02 A3019 RMK
AO2 SLP234 T00501022 $





000
SAUS41 KLWX 030400 COR
MTRRYT
METAR KRYT 030353Z AUTO 00000KT 10SM BKN038 OVC048 05/M02 A3019 RMK
AO2 SLP234 T00501022 $





000
SAUS41 KLWX 030358
MTRDMH
METAR KDMH 030354Z AUTO 06/M02 A3029 RMK AO1 SLP256 T00561017





000
SAUS41 KLWX 030358
MTRDMH
METAR KDMH 030354Z AUTO 06/M02 A3029 RMK AO1 SLP256 T00561017





000
SAUS41 KLWX 030355
MTRNAK
METAR KNAK 030354Z AUTO 14006KT 10SM OVC044 05/01 A3029 RMK AO2
SLP258 T00500011





000
SAUS41 KLWX 030303 COR
MTRRSP
METAR KRSP 030254Z AUTO 10SM OVC027 03/M03 A3015 RMK AO2 SLP230
T00331028 56012 $





000
SAUS41 KLWX 030301 COR
MTRRYT
METAR KRYT 030253Z AUTO 00000KT 10SM OVC038 05/M03 A3022 RMK AO2
SLP243 T00501028 58013 $





000
SAUS41 KLWX 030258
MTRDMH
METAR KDMH 030254Z AUTO 06/M01 A3033 RMK AO1 SLP269 T00611011 53004





000
SAUS41 KLWX 030255
MTRNAK
METAR KNAK 030254Z AUTO 12009KT 10SM BKN050 05/01 A3031 RMK AO2
SLP267 T00500011 58002





000
SAUS41 KLWX 030255
MTRNAK
METAR KNAK 030254Z AUTO 12009KT 10SM BKN050 05/01 A3031 RMK AO2
SLP267 T00500011 58002





000
SAUS41 KLWX 030250 COR
MTRRSP
SPECI KRSP 030240Z AUTO 10SM OVC029 03/M03 A3016 RMK AO2 $





000
SAUS41 KLWX 030232 COR
MTRRSP
SPECI KRSP 030223Z AUTO 10SM OVC031 03/M03 A3017 RMK AO2 $





000
SAUS41 KLWX 030203 COR
MTRRSP
METAR KRSP 030154Z AUTO 10SM OVC027 03/M03 A3016 RMK AO2 SLP233
T00331033 $





000
SAUS41 KLWX 030201 COR
MTRRYT
METAR KRYT 030153Z AUTO 00000KT 10SM OVC036 05/M03 A3024 RMK AO2
SLP252 T00501028 $





000
SAUS41 KLWX 030201 COR
MTRRYT
METAR KRYT 030153Z AUTO 00000KT 10SM OVC036 05/M03 A3024 RMK AO2
SLP252 T00501028 $





000
SAUS41 KLWX 030200 COR
MTRRYT
METAR KRYT 030153Z AUTO 00000KT 10SM OVC036 05/M03 A3024 RMK AO2
SLP252 T00501028 $





000
SAUS41 KLWX 030200 COR
MTRRYT
METAR KRYT 030153Z AUTO 00000KT 10SM OVC036 05/M03 A3024 RMK AO2
SLP252 T00501028 $





000
SAUS41 KLWX 030158
MTRDMH
METAR KDMH 030154Z AUTO 06/M01 A3031 RMK AO1 SLP265 T00561006





000
SAUS41 KLWX 030158
MTRDMH
METAR KDMH 030154Z AUTO 06/M01 A3031 RMK AO1 SLP265 T00561006





000
SAUS41 KLWX 030155
MTRNAK
METAR KNAK 030154Z AUTO 14006KT 10SM CLR 04/02 A3032 RMK AO2 SLP270
T00440017





000
SAUS41 KLWX 030104 COR
MTRRSP
METAR KRSP 030054Z AUTO 10SM OVC029 04/M04 A3018 RMK AO2 SLP240
T00391039 $





000
SAUS41 KLWX 030104 COR
MTRRSP
METAR KRSP 030054Z AUTO 10SM OVC029 04/M04 A3018 RMK AO2 SLP240
T00391039 $





000
SAUS41 KLWX 030100
MTRRYT
METAR KRYT 030053Z AUTO 00000KT 10SM OVC040 05/M03 A3025 RMK AO2
SLP256 T00501028 $





000
SAUS41 KLWX 030058
MTRDMH
METAR KDMH 030054Z AUTO 07/M02 A3031 RMK AO1 SLP265 T00671017





000
SAUS41 KLWX 030055
MTRNAK
METAR KNAK 030054Z AUTO 13005KT 10SM CLR 03/01 A3033 RMK AO2 SLP271
T00330011





    US Dept of Commerce
    National Oceanic and Atmospheric Administration
    National Weather Service
    1325 East West Highway
    Silver Spring, MD 20910
    Page Author: NWS Internet Services Team
Disclaimer
Information Quality
Credits
Glossary
Privacy Policy
Freedom of Information Act (FOIA)
About Us
Career Opportunities